Data for 10/23/2011

Time Sea-Level Adjusted Pressure Absolute Pressure Temperature Relative Humidity Dew Point Precipitation   
(mb) (inHg) (mb) (inHg) (C) (F) (%) (C) (F) (mm) (in)
00:01 1023 30.21 852 25.16 6.9 44.4 62 0.2 32.4 -89.6 -3.528
00:02 1023 30.21 852 25.16 7.3 45.2 60 0.1 32.3 -89.6 -3.528
00:03 1023 30.21 852 25.16 7.7 45.8 59 0.2 32.3 -89.6 -3.528
00:04 1023 30.21 852 25.16 7.5 45.6 61 0.5 32.8 -89.6 -3.528
00:05 1023 30.21 852 25.16 7.3 45.2 61 0.3 32.5 -89.6 -3.528
00:06 1023 30.21 852 25.16 7.5 45.4 60 0.2 32.4 -89.6 -3.528
00:07 1023 30.21 852 25.16 7.6 45.7 59 0.2 32.3 -89.6 -3.528
00:08 1023 30.21 852 25.16 7.8 46 59 0.3 32.5 -89.6 -3.528
00:09 1023 30.21 852 25.16 7.9 46.2 58 0.3 32.5 -89.7 -3.531
00:10 1023 30.21 852 25.16 7.9 46.3 58 0.3 32.6 -89.7 -3.531
00:11 1023 30.21 852 25.16 7.9 46.2 59 0.3 32.6 -89.7 -3.531
00:12 1023 30.21 852 25.16 8 46.3 58 0.3 32.6 -89.7 -3.531
00:13 1023 30.21 852 25.16 8 46.4 58 0.3 32.5 -89.7 -3.531
00:14 1023 30.21 852 25.16 8 46.4 58 0.3 32.6 -89.7 -3.531
00:15 1023 30.21 852 25.16 8 46.4 58 0.3 32.6 -89.7 -3.531
00:16 1023 30.21 852 25.16 8.1 46.5 58 0.3 32.6 -89.8 -3.535
00:17 1023 30.21 852 25.16 8.1 46.6 58 0.3 32.6 -89.8 -3.535
00:18 1023 30.21 852 25.16 7.9 46.3 59 0.4 32.7 -89.8 -3.535
00:19 1023 30.21 852 25.16 7.8 46 59 0.3 32.6 -89.8 -3.535
00:20 1023 30.21 852 25.16 7.7 45.9 60 0.4 32.6 -89.8 -3.535
00:21 1023 30.21 852 25.16 7.7 45.9 59 0.3 32.5 -89.8 -3.535
00:22 1023 30.21 852 25.16 7.7 45.9 59 0.3 32.5 -89.8 -3.535
00:23 1023 30.21 852 25.16 7.6 45.8 59 0.3 32.5 -89.8 -3.535
00:24 1023 30.21 852 25.16 7.4 45.4 60 0.2 32.4 -89.8 -3.535
00:25 1023 30.21 852 25.16 7.1 44.8 62 0.3 32.5 -89.8 -3.535
00:26 1023 30.21 852 25.16 7 44.5 63 0.4 32.7 -89.8 -3.535
00:27 1023 30.21 852 25.16 7.1 44.7 62 0.2 32.4 -89.8 -3.535
00:28 1023 30.21 852 25.16 7.4 45.3 59 -0.1 31.9 -89.8 -3.535
00:29 1023 30.21 852 25.16 7.8 46.1 58 0.1 32.2 -89.8 -3.535
00:30 1023 30.21 852 25.16 8.2 46.8 57 0.3 32.5 -89.8 -3.535
00:31 1023 30.21 852 25.16 8.3 47 58 0.5 32.8 -89.8 -3.535
00:32 1023 30.21 852 25.16 8.3 46.9 58 0.5 33 -89.8 -3.535
00:33 1023 30.21 852 25.16 8.2 46.7 59 0.7 33.2 -89.8 -3.535
00:34 1023 30.21 852 25.16 7.8 46 60 0.6 33.1 -89.8 -3.535
00:35 1023 30.21 852 25.16 7.4 45.2 62 0.5 32.9 -89.8 -3.535
00:36 1023 30.21 852 25.16 7.3 45.1 61 0.3 32.6 -89.8 -3.535
00:37 1023 30.21 852 25.16 7.7 45.8 59 0.2 32.3 -89.8 -3.535
00:38 1023 30.21 852 25.16 8 46.4 58 0.3 32.6 -89.8 -3.535
00:39 1023 30.21 852 25.16 8.2 46.7 57 0.3 32.5 -89.8 -3.535
00:40 1023 30.21 852 25.16 8.2 46.8 57 0.3 32.6 -89.8 -3.535
00:41 1023 30.21 852 25.16 8.1 46.5 58 0.4 32.7 -89.8 -3.535
00:42 1023 30.21 852 25.16 8 46.3 59 0.4 32.8 -89.8 -3.535
00:43 1023 30.21 852 25.16 8 46.4 59 0.4 32.7 -89.9 -3.539
00:44 1023 30.21 852 25.16 8.2 46.7 58 0.4 32.7 -89.9 -3.539
00:45 1023 30.21 852 25.16 8.3 46.9 58 0.5 33 -89.9 -3.539
00:46 1023 30.21 852 25.16 8.2 46.7 59 0.6 33.1 -89.9 -3.539
00:47 1023 30.21 852 25.16 8.1 46.5 59 0.5 33 -89.9 -3.539
00:48 1023 30.21 852 25.16 8 46.4 59 0.6 33.1 -89.9 -3.539
00:49 1022 30.18 852 25.16 8 46.3 59 0.4 32.7 -89.9 -3.539
00:50 1023 30.21 852 25.16 8 46.3 57 0 32.1 -89.9 -3.539
00:51 1023 30.21 852 25.16 8.3 46.9 57 0.3 32.5 -89.9 -3.539
00:52 1023 30.21 852 25.16 8.5 47.2 56 0.1 32.2 -89.9 -3.539
00:53 1023 30.21 852 25.16 8.6 47.5 56 0.4 32.7 -89.9 -3.539
00:54 1023 30.21 852 25.16 8.7 47.6 56 0.4 32.6 -89.9 -3.539
00:55 1023 30.21 852 25.16 8.7 47.7 55 0.3 32.5 -89.9 -3.539
00:56 1023 30.21 852 25.16 8.8 47.9 56 0.6 33.1 -89.9 -3.539
00:57 1023 30.21 852 25.16 8.8 47.8 55 0.2 32.3 -89.9 -3.539
00:58 1023 30.21 852 25.16 8.8 47.9 54 0.2 32.3 -89.9 -3.539
00:59 1023 30.21 852 25.16 8.9 48.1 54 0.2 32.4 -89.9 -3.539
01:00 1023 30.21 852 25.16 9 48.2 54 0.2 32.4 -89.9 -3.539
01:01 1023 30.21 852 25.16 9 48.2 54 0.2 32.4 -89.9 -3.539
01:02 1023 30.21 852 25.16 9 48.2 54 0.3 32.5 -89.9 -3.539
01:03 1023 30.21 852 25.16 8.9 48 55 0.4 32.7 -89.9 -3.539
01:04 1023 30.21 852 25.16 8.7 47.7 56 0.4 32.7 -89.9 -3.539
01:05 1023 30.21 852 25.16 8.7 47.6 56 0.3 32.6 -89.9 -3.539
01:06 1023 30.21 852 25.16 8.7 47.7 55 0.2 32.4 -89.9 -3.539
01:07 1023 30.21 852 25.16 8.8 47.9 54 -0 32 -89.9 -3.539
01:08 1023 30.21 852 25.16 9 48.2 54 0.1 32.2 -89.9 -3.539
01:09 1022 30.18 852 25.16 9 48.2 54 0.1 32.2 -89.9 -3.539
01:10 1023 30.21 852 25.16 8.9 48 54 0.1 32.2 -89.9 -3.539
01:11 1023 30.21 852 25.16 8.8 47.8 55 0.2 32.3 -89.9 -3.539
01:12 1022 30.18 852 25.16 8.7 47.6 57 0.6 33 -89.9 -3.539
01:13 1023 30.21 852 25.16 8.6 47.4 55 0.1 32.1 -89.9 -3.539
01:14 1023 30.21 852 25.16 8.7 47.6 55 0.3 32.5 -89.9 -3.539
01:15 1022 30.18 852 25.16 8.7 47.6 55 0.2 32.4 -89.9 -3.539
01:16 1022 30.18 852 25.16 8.7 47.7 53 -0.3 31.5 -89.9 -3.539
01:17 1022 30.18 852 25.16 8.9 48.1 52 -0.4 31.3 -89.9 -3.539
01:18 1023 30.21 852 25.16 9.2 48.5 54 0.3 32.6 -89.9 -3.539
01:19 1022 30.18 852 25.16 9.1 48.3 57 1 33.9 -89.8 -3.535
01:20 1022 30.18 852 25.16 8.7 47.7 59 1.1 34 -89.9 -3.539
01:21 1023 30.21 852 25.16 8.4 47.1 59 1 33.7 -89.9 -3.539
01:22 1022 30.18 852 25.16 8.3 46.9 58 0.6 33.1 -89.9 -3.539
01:23 1022 30.18 851 25.13 8.3 46.9 57 0.4 32.7 -89.9 -3.539
01:24 1022 30.18 852 25.16 8.4 47.1 56 0.1 32.1 -89.9 -3.539
01:25 1023 30.21 852 25.16 8.5 47.2 58 0.8 33.5 -89.8 -3.535
01:26 1023 30.21 852 25.16 8.1 46.6 59 0.7 33.2 -89.8 -3.535
01:27 1023 30.21 852 25.16 7.8 46.1 59 0.4 32.6 -89.8 -3.535
01:28 1023 30.21 852 25.16 7.8 46 58 0 32.1 -89.8 -3.535
01:29 1023 30.21 852 25.16 7.9 46.3 59 0.5 32.9 -89.8 -3.535
01:30 1023 30.21 852 25.16 7.7 45.9 61 0.7 33.3 -89.8 -3.535
01:31 1023 30.21 852 25.16 7.2 45 62 0.6 33 -89.8 -3.535
01:32 1023 30.21 852 25.16 6.9 44.5 61 0.1 32.1 -89.8 -3.535
01:33 1023 30.21 852 25.16 7 44.6 61 0.1 32.2 -89.8 -3.535
01:34 1023 30.21 852 25.16 7.1 44.8 62 0.3 32.5 -89.8 -3.535
01:35 1022 30.18 852 25.16 7.1 44.8 61 0.1 32.1 -89.8 -3.535
01:36 1023 30.21 852 25.16 7.2 45 60 0 32 -89.8 -3.535
01:37 1022 30.18 852 25.16 7.4 45.2 60 0.2 32.4 -89.8 -3.535
01:38 1022 30.18 852 25.16 7.3 45.1 61 0.3 32.6 -89.8 -3.535
01:39 1022 30.18 852 25.16 7 44.7 62 0.4 32.7 -89.8 -3.535
01:40 1022 30.18 852 25.16 6.8 44.3 63 0.3 32.5 -89.8 -3.535
01:41 1022 30.18 852 25.16 6.7 44.1 63 0.2 32.3 -89.8 -3.535
01:42 1022 30.18 852 25.16 6.7 44.1 63 0.3 32.5 -89.8 -3.535
01:43 1022 30.18 851 25.13 6.6 43.9 64 0.3 32.5 -89.8 -3.535
01:44 1022 30.18 851 25.13 6.4 43.5 65 0.2 32.4 -89.8 -3.535
01:45 1022 30.18 852 25.16 6.3 43.3 65 0.2 32.4 -89.8 -3.535
01:46 1022 30.18 851 25.13 6.2 43.1 66 0.2 32.4 -89.8 -3.535
01:47 1022 30.18 851 25.13 5.9 42.7 67 0.2 32.4 -89.8 -3.535
01:48 1022 30.18 851 25.13 5.7 42.3 67 0.2 32.3 -89.8 -3.535
01:49 1022 30.18 851 25.13 5.6 42.1 68 0.1 32.2 -89.8 -3.535
01:50 1022 30.18 851 25.13 5.6 42 68 0.1 32.2 -89.8 -3.535
01:51 1022 30.18 851 25.13 5.4 41.7 68 -0 31.9 -89.8 -3.535
01:52 1022 30.18 851 25.13 5.1 41.2 69 -0.2 31.7 -89.8 -3.535
01:53 1022 30.18 851 25.13 4.9 40.8 70 -0.1 31.8 -89.8 -3.535
01:54 1022 30.18 851 25.13 4.8 40.6 71 -0.1 31.9 -89.8 -3.535
01:55 1022 30.18 851 25.13 4.8 40.6 71 -0.1 31.8 -89.8 -3.535
01:56 1022 30.18 851 25.13 4.7 40.5 71 -0.1 31.8 -89.8 -3.535
01:57 1022 30.18 851 25.13 4.6 40.3 71 -0.1 31.7 -89.8 -3.535
01:58 1022 30.18 851 25.13 4.5 40.1 72 -0.2 31.7 -89.8 -3.535
01:59 1022 30.18 851 25.13 4.5 40.1 72 -0.2 31.7 -89.8 -3.535
02:00 1022 30.18 851 25.13 4.5 40 72 -0.2 31.7 -89.8 -3.535
02:01 1022 30.18 851 25.13 4.5 40.2 71 -0.2 31.6 -89.8 -3.535
02:02 1022 30.18 851 25.13 4.6 40.3 71 -0.2 31.6 -89.8 -3.535
02:03 1022 30.18 851 25.13 4.7 40.4 71 -0.2 31.6 -89.8 -3.535
02:04 1022 30.18 851 25.13 4.8 40.6 69 -0.4 31.3 -89.8 -3.535
02:05 1022 30.18 851 25.13 5 41 68 -0.4 31.3 -89.8 -3.535
02:06 1022 30.18 851 25.13 5.2 41.4 67 -0.4 31.3 -89.8 -3.535
02:07 1022 30.18 851 25.13 5.4 41.8 66 -0.5 31.1 -89.8 -3.535
02:08 1022 30.18 851 25.13 5.6 42.1 64 -0.5 31 -89.8 -3.535
02:09 1022 30.18 851 25.13 5.7 42.3 64 -0.5 31 -89.8 -3.535
02:10 1022 30.18 851 25.13 5.8 42.4 64 -0.6 31 -89.8 -3.535
02:11 1022 30.18 851 25.13 5.7 42.3 64 -0.5 31.2 -89.8 -3.535
02:12 1022 30.18 851 25.13 5.6 42.1 65 -0.5 31.2 -89.8 -3.535
02:13 1022 30.18 851 25.13 5.5 41.9 66 -0.3 31.4 -89.8 -3.535
02:14 1022 30.18 851 25.13 5.4 41.8 67 -0.3 31.5 -89.8 -3.535
02:15 1022 30.18 851 25.13 5.3 41.5 68 -0.2 31.7 -89.8 -3.535
02:16 1022 30.18 851 25.13 5.2 41.3 69 -0.1 31.8 -89.8 -3.535
02:17 1022 30.18 851 25.13 5.1 41.1 70 0 32 -89.8 -3.535
02:18 1022 30.18 851 25.13 5 41.1 71 0.2 32.4 -89.8 -3.535
02:19 1022 30.18 851 25.13 5.3 41.6 70 0.3 32.6 -89.8 -3.535
02:20 1022 30.18 851 25.13 5.8 42.4 68 0.3 32.5 -89.8 -3.535
02:21 1022 30.18 851 25.13 6.3 43.3 66 0.3 32.6 -89.8 -3.535
02:22 1022 30.18 851 25.13 6.7 44.1 64 0.4 32.8 -89.8 -3.535
02:23 1022 30.18 851 25.13 7 44.7 63 0.5 32.9 -89.9 -3.539
02:24 1022 30.18 851 25.13 7.3 45.1 61 0.4 32.6 -89.9 -3.539
02:25 1022 30.18 851 25.13 7.6 45.7 61 0.6 33.1 -89.9 -3.539
02:26 1022 30.18 851 25.13 7.8 46 60 0.6 33.1 -89.9 -3.539
02:27 1022 30.18 851 25.13 7.9 46.3 59 0.5 32.8 -89.9 -3.539
02:28 1022 30.18 851 25.13 8.1 46.6 58 0.4 32.7 -89.9 -3.539
02:29 1022 30.18 851 25.13 8.3 46.9 58 0.5 32.9 -90 -3.543
02:30 1022 30.18 851 25.13 8.5 47.2 57 0.6 33 -90 -3.543
02:31 1022 30.18 851 25.13 8.6 47.4 57 0.5 32.9 -90 -3.543
02:32 1022 30.18 851 25.13 8.7 47.7 55 0.3 32.5 -90 -3.543
02:33 1022 30.18 851 25.13 9 48.1 55 0.5 32.9 -90 -3.543
02:34 1022 30.18 851 25.13 9 48.1 56 0.6 33 -90 -3.543
02:35 1022 30.18 851 25.13 9 48.1 55 0.5 32.9 -90 -3.543
02:36 1022 30.18 851 25.13 9 48.1 55 0.5 32.9 -90 -3.543
02:37 1022 30.18 851 25.13 8.9 48 55 0.5 32.8 -90 -3.543
02:38 1022 30.18 851 25.13 8.9 48.1 55 0.5 32.9 -90 -3.543
02:39 1022 30.18 851 25.13 8.9 48.1 56 0.6 33.1 -90 -3.543
02:40 1022 30.18 851 25.13 8.9 48 56 0.6 33.1 -90 -3.543
02:41 1022 30.18 851 25.13 8.8 47.9 57 0.7 33.3 -90 -3.543
02:42 1022 30.18 851 25.13 8.7 47.6 57 0.8 33.4 -90 -3.543
02:43 1022 30.18 851 25.13 8.6 47.5 58 0.7 33.3 -90 -3.543
02:44 1022 30.18 851 25.13 8.6 47.5 57 0.6 33.2 -90 -3.543
02:45 1022 30.18 851 25.13 8.5 47.4 58 0.8 33.4 -90 -3.543
02:46 1022 30.18 851 25.13 8.5 47.2 58 0.8 33.4 -90 -3.543
02:47 1022 30.18 851 25.13 8.4 47.1 59 0.8 33.5 -90 -3.543
02:48 1022 30.18 851 25.13 8.3 46.9 59 0.8 33.5 -90 -3.543
02:49 1022 30.18 851 25.13 8.1 46.7 59 0.7 33.3 -90 -3.543
02:50 1022 30.18 851 25.13 8.1 46.7 59 0.7 33.3 -90 -3.543
02:51 1022 30.18 851 25.13 8.1 46.6 60 0.8 33.5 -90 -3.543
02:52 1022 30.18 851 25.13 8 46.5 60 0.8 33.4 -89.9 -3.539
02:53 1022 30.18 851 25.13 8 46.3 61 0.8 33.5 -89.9 -3.539
02:54 1022 30.18 851 25.13 8 46.3 61 0.8 33.5 -89.9 -3.539
02:55 1022 30.18 851 25.13 8 46.5 61 1 33.7 -89.9 -3.539
02:56 1022 30.18 851 25.13 8.1 46.6 60 0.9 33.6 -89.9 -3.539
02:57 1022 30.18 851 25.13 8.2 46.8 60 0.9 33.6 -89.9 -3.539
02:58 1022 30.18 851 25.13 8.3 46.9 59 0.9 33.6 -89.9 -3.539
02:59 1022 30.18 851 25.13 8.4 47 60 1 33.7 -89.9 -3.539
03:00 1022 30.18 851 25.13 8.4 47 60 1 33.8 -89.9 -3.539
03:01 1022 30.18 851 25.13 8.4 47 60 1.1 33.9 -89.9 -3.539
03:02 1022 30.18 851 25.13 8.4 47.1 60 1.1 34 -89.9 -3.539
03:03 1022 30.18 851 25.13 8.5 47.2 59 1 33.7 -89.9 -3.539
03:04 1022 30.18 851 25.13 8.6 47.4 59 1.1 33.9 -89.9 -3.539
03:05 1022 30.18 851 25.13 8.6 47.5 59 1.1 34.1 -89.9 -3.539
03:06 1022 30.18 851 25.13 8.8 47.8 59 1.2 34.1 -89.9 -3.539
03:07 1022 30.18 851 25.13 8.9 48 58 1.1 34 -89.9 -3.539
03:08 1022 30.18 851 25.13 9.1 48.3 57 1.1 34 -89.9 -3.539
03:09 1022 30.18 851 25.13 9.2 48.6 57 1.2 34.2 -89.9 -3.539
03:10 1022 30.18 851 25.13 9.3 48.8 57 1.2 34.1 -89.9 -3.539
03:11 1022 30.18 851 25.13 9.4 49 56 1.1 34.1 -89.9 -3.539
03:12 1022 30.18 851 25.13 9.7 49.4 55 1.1 34 -89.9 -3.539
03:13 1022 30.18 851 25.13 9.8 49.7 54 1.1 34 -89.8 -3.535
03:14 1022 30.18 851 25.13 9.9 49.9 55 1.3 34.3 -89.8 -3.535
03:15 1022 30.18 851 25.13 9.9 49.8 55 1.4 34.5 -89.8 -3.535
03:16 1022 30.18 851 25.13 9.8 49.7 55 1.4 34.5 -89.8 -3.535
03:17 1022 30.18 851 25.13 9.8 49.6 55 1.3 34.3 -89.8 -3.535
03:18 1022 30.18 851 25.13 9.7 49.5 56 1.4 34.4 -89.8 -3.535
03:19 1022 30.18 851 25.13 9.7 49.5 56 1.3 34.3 -89.8 -3.535
03:20 1022 30.18 851 25.13 9.7 49.5 56 1.4 34.5 -89.8 -3.535
03:21 1022 30.18 851 25.13 9.7 49.4 56 1.3 34.4 -89.8 -3.535
03:22 1022 30.18 851 25.13 9.7 49.5 56 1.4 34.4 -89.8 -3.535
03:23 1022 30.18 851 25.13 9.8 49.6 56 1.4 34.5 -89.8 -3.535
03:24 1022 30.18 851 25.13 9.8 49.6 56 1.3 34.4 -89.8 -3.535
03:25 1022 30.18 851 25.13 9.8 49.6 56 1.3 34.4 -89.8 -3.535
03:26 1022 30.18 851 25.13 9.8 49.7 56 1.4 34.6 -89.8 -3.535
03:27 1022 30.18 851 25.13 9.9 49.7 55 1.2 34.1 -89.8 -3.535
03:28 1022 30.18 851 25.13 10 49.9 55 1.3 34.3 -89.8 -3.535
03:29 1022 30.18 851 25.13 10 50 55 1.3 34.4 -89.8 -3.535
03:30 1022 30.18 851 25.13 10 50 54 1.2 34.2 -89.8 -3.535
03:31 1022 30.18 851 25.13 10 50.1 53 1 33.7 -89.8 -3.535
03:32 1022 30.18 851 25.13 10.2 50.4 53 1.1 34 -89.8 -3.535
03:33 1022 30.18 851 25.13 10.3 50.5 54 1.4 34.5 -89.8 -3.535
03:34 1022 30.18 851 25.13 10.2 50.4 54 1.4 34.5 -89.8 -3.535
03:35 1022 30.18 851 25.13 10.1 50.3 53 1.1 33.9 -89.8 -3.535
03:36 1022 30.18 851 25.13 10.2 50.3 53 1 33.7 -89.8 -3.535
03:37 1022 30.18 851 25.13 10.3 50.5 53 1.1 33.9 -89.8 -3.535
03:38 1022 30.18 851 25.13 10.3 50.5 53 1 33.8 -89.8 -3.535
03:39 1022 30.18 851 25.13 10.3 50.5 53 1.1 33.9 -89.8 -3.535
03:40 1022 30.18 851 25.13 10.2 50.4 53 1 33.8 -89.7 -3.531
03:41 1022 30.18 851 25.13 10.2 50.4 53 1.2 34.2 -89.7 -3.531
03:42 1022 30.18 851 25.13 10.1 50.1 53 1.1 34 -89.7 -3.531
03:43 1022 30.18 851 25.13 10 50.1 53 0.9 33.7 -89.7 -3.531
03:44 1022 30.18 851 25.13 10.1 50.1 53 0.8 33.5 -89.7 -3.531
03:45 1022 30.18 851 25.13 10.1 50.1 53 0.9 33.5 -89.7 -3.531
03:46 1022 30.18 851 25.13 10.1 50.2 53 0.9 33.6 -89.7 -3.531
03:47 1022 30.18 851 25.13 10.1 50.1 52 0.8 33.5 -89.7 -3.531
03:48 1022 30.18 851 25.13 10.1 50.2 52 0.9 33.5 -89.7 -3.531
03:49 1022 30.18 851 25.13 10.1 50.1 53 1 33.7 -89.7 -3.531
03:50 1022 30.18 851 25.13 10 50 53 1 33.8 -89.7 -3.531
03:51 1022 30.18 851 25.13 9.9 49.9 53 0.9 33.6 -89.7 -3.531
03:52 1022 30.18 851 25.13 9.9 49.8 53 0.7 33.3 -89.7 -3.531
03:53 1022 30.18 851 25.13 9.9 49.9 52 0.7 33.2 -89.7 -3.531
03:54 1022 30.18 851 25.13 10 49.9 53 0.8 33.5 -89.7 -3.531
03:55 1022 30.18 851 25.13 10 49.9 53 0.8 33.5 -89.7 -3.531
03:56 1022 30.18 851 25.13 10 50 52 0.7 33.2 -89.7 -3.531
03:57 1022 30.18 851 25.13 10 50 52 0.7 33.3 -89.6 -3.528
03:58 1022 30.18 851 25.13 10 50 53 0.8 33.4 -89.6 -3.528
03:59 1022 30.18 851 25.13 10 50 53 0.9 33.6 -89.6 -3.528
04:00 1022 30.18 851 25.13 9.9 49.9 53 0.8 33.4 -89.6 -3.528
04:01 1022 30.18 851 25.13 10 49.9 53 0.8 33.5 -89.6 -3.528
04:02 1022 30.18 851 25.13 10 49.9 53 0.7 33.3 -89.6 -3.528
04:03 1022 30.18 851 25.13 10 50 53 0.8 33.5 -89.6 -3.528
04:04 1022 30.18 851 25.13 10 50 53 0.8 33.4 -89.6 -3.528
04:05 1022 30.18 851 25.13 10 50 51 0.4 32.8 -89.6 -3.528
04:06 1022 30.18 851 25.13 10.2 50.3 51 0.6 33.1 -89.6 -3.528
04:07 1022 30.18 851 25.13 10.3 50.5 51 0.6 33.1 -89.6 -3.528
04:08 1022 30.18 851 25.13 10.4 50.6 50 0.5 32.9 -89.6 -3.528
04:09 1022 30.18 851 25.13 10.4 50.8 50 0.6 33.1 -89.6 -3.528
04:10 1022 30.18 851 25.13 10.5 50.8 50 0.5 32.9 -89.6 -3.528
04:11 1022 30.18 851 25.13 10.6 51 49 0.3 32.6 -89.6 -3.528
04:12 1022 30.18 851 25.13 10.7 51.2 49 0.5 32.9 -89.6 -3.528
04:13 1022 30.18 851 25.13 10.7 51.3 49 0.6 33.1 -89.6 -3.528
04:14 1022 30.18 851 25.13 10.7 51.2 49 0.4 32.8 -89.6 -3.528
04:15 1022 30.18 851 25.13 10.8 51.4 49 0.5 32.8 -89.6 -3.528
04:16 1022 30.18 851 25.13 10.8 51.5 48 0.4 32.7 -89.6 -3.528
04:17 1022 30.18 851 25.13 10.9 51.6 49 0.6 33 -89.6 -3.528
04:18 1022 30.18 851 25.13 10.8 51.5 49 0.7 33.2 -89.6 -3.528
04:19 1022 30.18 851 25.13 10.8 51.4 49 0.6 33.2 -89.6 -3.528
04:20 1022 30.18 851 25.13 10.8 51.4 48 0.3 32.5 -89.6 -3.528
04:21 1022 30.18 851 25.13 10.8 51.5 49 0.6 33.1 -89.6 -3.528
04:22 1022 30.18 851 25.13 10.9 51.5 49 0.5 33 -89.5 -3.524
04:23 1022 30.18 851 25.13 10.8 51.5 49 0.5 32.9 -89.5 -3.524
04:24 1022 30.18 851 25.13 10.9 51.6 48 0.4 32.8 -89.5 -3.524
04:25 1022 30.18 851 25.13 10.9 51.7 48 0.5 33 -89.5 -3.524
04:26 1022 30.18 851 25.13 11 51.7 49 0.7 33.3 -89.5 -3.524
04:27 1022 30.18 851 25.13 11 51.7 48 0.6 33 -89.5 -3.524
04:28 1022 30.18 851 25.13 10.9 51.6 50 0.9 33.6 -89.5 -3.524
04:29 1022 30.18 851 25.13 10.8 51.4 49 0.6 33.1 -89.5 -3.524
04:30 1022 30.18 851 25.13 10.7 51.3 50 0.8 33.4 -89.5 -3.524
04:31 1022 30.18 851 25.13 10.7 51.3 50 0.7 33.2 -89.5 -3.524
04:32 1022 30.18 851 25.13 10.7 51.2 50 0.6 33.1 -89.5 -3.524
04:33 1022 30.18 851 25.13 10.7 51.3 49 0.5 33 -89.5 -3.524
04:34 1022 30.18 851 25.13 10.8 51.4 50 0.8 33.4 -89.5 -3.524
04:35 1022 30.18 851 25.13 10.8 51.5 50 0.8 33.4 -89.5 -3.524
04:36 1022 30.18 851 25.13 10.8 51.5 50 0.8 33.4 -89.5 -3.524
04:37 1022 30.18 851 25.13 10.8 51.5 49 0.7 33.2 -89.5 -3.524
04:38 1022 30.18 851 25.13 10.9 51.7 49 0.7 33.2 -89.5 -3.524
04:39 1022 30.18 851 25.13 11 51.7 49 0.8 33.4 -89.5 -3.524
04:40 1022 30.18 851 25.13 10.9 51.7 50 1 33.8 -89.5 -3.524
04:41 1022 30.18 851 25.13 10.9 51.6 49 0.8 33.4 -89.5 -3.524
04:42 1022 30.18 851 25.13 10.9 51.5 49 0.7 33.3 -89.5 -3.524
04:43 1022 30.18 851 25.13 10.9 51.7 49 0.7 33.2 -89.5 -3.524
04:44 1022 30.18 851 25.13 10.9 51.7 50 0.9 33.6 -89.5 -3.524
04:45 1022 30.18 851 25.13 10.9 51.7 50 0.9 33.7 -89.5 -3.524
04:46 1022 30.18 851 25.13 10.8 51.5 50 0.9 33.7 -89.5 -3.524
04:47 1021 30.15 851 25.13 10.8 51.5 50 0.8 33.5 -89.4 -3.52
04:48 1021 30.15 851 25.13 10.8 51.4 50 0.7 33.3 -89.4 -3.52
04:49 1021 30.15 851 25.13 10.8 51.5 50 0.8 33.4 -89.4 -3.52
04:50 1021 30.15 851 25.13 10.8 51.5 50 0.8 33.5 -89.4 -3.52
04:51 1021 30.15 851 25.13 10.8 51.4 49 0.6 33.2 -89.4 -3.52
04:52 1021 30.15 851 25.13 10.8 51.5 50 0.8 33.4 -89.4 -3.52
04:53 1021 30.15 851 25.13 10.9 51.5 49 0.7 33.3 -89.4 -3.52
04:54 1021 30.15 851 25.13 10.8 51.4 50 0.9 33.7 -89.4 -3.52
04:55 1021 30.15 851 25.13 10.7 51.3 50 0.8 33.5 -89.4 -3.52
04:56 1021 30.15 851 25.13 10.7 51.3 51 0.9 33.7 -89.4 -3.52
04:57 1021 30.15 851 25.13 10.7 51.3 51 0.9 33.7 -89.4 -3.52
04:58 1021 30.15 851 25.13 10.7 51.2 51 0.9 33.6 -89.4 -3.52
04:59 1021 30.15 851 25.13 10.6 51.1 51 0.9 33.7 -89.4 -3.52
05:00 1021 30.15 851 25.13 10.5 51 51 0.9 33.6 -89.4 -3.52
05:01 1021 30.15 851 25.13 10.5 51 50 0.7 33.2 -89.4 -3.52
05:02 1021 30.15 851 25.13 10.6 51 51 0.8 33.4 -89.4 -3.52
05:03 1021 30.15 851 25.13 10.6 51 51 0.8 33.5 -89.4 -3.52
05:04 1021 30.15 851 25.13 10.5 51 51 0.9 33.6 -89.4 -3.52
05:05 1021 30.15 851 25.13 10.5 50.9 51 0.8 33.5 -89.4 -3.52
05:06 1021 30.15 851 25.13 10.5 50.9 51 0.9 33.6 -89.4 -3.52
05:07 1021 30.15 851 25.13 10.5 50.9 51 0.7 33.3 -89.4 -3.52
05:08 1021 30.15 851 25.13 10.5 50.9 50 0.7 33.2 -89.4 -3.52
05:09 1021 30.15 851 25.13 10.5 50.9 50 0.6 33.1 -89.4 -3.52
05:10 1021 30.15 851 25.13 10.5 50.9 51 0.8 33.5 -89.4 -3.52
05:11 1021 30.15 851 25.13 10.5 50.9 52 1 33.8 -89.3 -3.516
05:12 1021 30.15 851 25.13 10.4 50.7 52 1 33.8 -89.3 -3.516
05:13 1021 30.15 851 25.13 10.3 50.5 52 1 33.8 -89.3 -3.516
05:14 1021 30.15 851 25.13 10.2 50.3 53 1.1 33.9 -89.3 -3.516
05:15 1021 30.15 851 25.13 10 50 53 1 33.8 -89.3 -3.516
05:16 1022 30.18 851 25.13 10 49.9 54 1.1 33.9 -89.3 -3.516
05:17 1022 30.18 851 25.13 9.9 49.7 54 1.1 33.9 -89.3 -3.516
05:18 1022 30.18 851 25.13 9.8 49.6 54 1.1 33.9 -89.3 -3.516
05:19 1022 30.18 851 25.13 9.7 49.5 54 1 33.7 -89.3 -3.516
05:20 1022 30.18 851 25.13 9.7 49.4 54 0.9 33.6 -89.3 -3.516
05:21 1022 30.18 851 25.13 9.7 49.4 54 0.9 33.7 -89.3 -3.516
05:22 1022 30.18 851 25.13 9.6 49.3 54 0.9 33.5 -89.3 -3.516
05:23 1022 30.18 851 25.13 9.6 49.3 54 0.9 33.7 -89.3 -3.516
05:24 1022 30.18 851 25.13 9.6 49.3 54 0.9 33.5 -89.3 -3.516
05:25 1022 30.18 851 25.13 9.6 49.2 55 0.9 33.6 -89.3 -3.516
05:26 1022 30.18 851 25.13 9.5 49.2 54 0.8 33.4 -89.3 -3.516
05:27 1022 30.18 851 25.13 9.5 49.2 54 0.8 33.5 -89.3 -3.516
05:28 1022 30.18 851 25.13 9.5 49.2 54 0.7 33.3 -89.3 -3.516
05:29 1022 30.18 851 25.13 9.6 49.2 54 0.8 33.5 -89.3 -3.516
05:30 1021 30.15 851 25.13 9.6 49.2 54 0.9 33.5 -89.3 -3.516
05:31 1022 30.18 851 25.13 9.6 49.2 54 0.8 33.5 -89.3 -3.516
05:32 1022 30.18 851 25.13 9.6 49.2 54 0.8 33.5 -89.3 -3.516
05:33 1022 30.18 851 25.13 9.6 49.2 54 0.7 33.3 -89.3 -3.516
05:34 1022 30.18 851 25.13 9.6 49.3 54 0.9 33.6 -89.3 -3.516
05:35 1022 30.18 851 25.13 9.6 49.3 54 0.9 33.6 -89.3 -3.516
05:36 1022 30.18 851 25.13 9.5 49.2 54 0.6 33.1 -89.3 -3.516
05:37 1021 30.15 851 25.13 9.6 49.3 53 0.5 33 -89.3 -3.516
05:38 1022 30.18 851 25.13 9.7 49.4 54 0.9 33.6 -89.3 -3.516
05:39 1021 30.15 851 25.13 9.6 49.3 54 0.9 33.6 -89.4 -3.52
05:40 1021 30.15 851 25.13 9.5 49.2 54 0.7 33.3 -89.4 -3.52
05:41 1021 30.15 851 25.13 9.5 49.1 55 0.8 33.5 -89.4 -3.52
05:42 1021 30.15 851 25.13 9.5 49 54 0.7 33.3 -89.4 -3.52
05:43 1021 30.15 851 25.13 9.5 49.1 53 0.5 32.9 -89.4 -3.52
05:44 1021 30.15 851 25.13 9.6 49.2 53 0.6 33 -89.4 -3.52
05:45 1021 30.15 851 25.13 9.6 49.4 53 0.5 33 -89.4 -3.52
05:46 1022 30.18 851 25.13 9.7 49.5 53 0.7 33.2 -89.4 -3.52
05:47 1022 30.18 851 25.13 9.7 49.4 54 0.9 33.5 -89.4 -3.52
05:48 1022 30.18 851 25.13 9.6 49.3 53 0.6 33.1 -89.4 -3.52
05:49 1021 30.15 851 25.13 9.6 49.3 53 0.6 33.1 -89.4 -3.52
05:50 1022 30.18 851 25.13 9.6 49.3 53 0.5 32.9 -89.4 -3.52
05:51 1021 30.15 851 25.13 9.7 49.5 53 0.6 33.1 -89.4 -3.52
05:52 1022 30.18 851 25.13 9.7 49.5 52 0.5 32.8 -89.4 -3.52
05:53 1021 30.15 851 25.13 9.7 49.5 52 0.5 32.9 -89.4 -3.52
05:54 1022 30.18 851 25.13 9.8 49.7 53 0.7 33.3 -89.4 -3.52
05:55 1021 30.15 851 25.13 9.9 49.8 52 0.5 32.9 -89.4 -3.52
05:56 1021 30.15 851 25.13 9.9 49.9 51 0.4 32.7 -89.4 -3.52
05:57 1021 30.15 851 25.13 10 50 51 0.3 32.6 -89.4 -3.52
05:58 1021 30.15 851 25.13 10.1 50.2 50 0.3 32.6 -89.4 -3.52
05:59 1021 30.15 851 25.13 10.2 50.4 50 0.4 32.7 -89.4 -3.52
06:00 1021 30.15 851 25.13 10.5 50.8 49 0.2 32.4 -89.4 -3.52
06:01 1021 30.15 851 25.13 10.8 51.4 48 0.4 32.7 -89.4 -3.52
06:02 1021 30.15 851 25.13 10.9 51.7 48 0.4 32.7 -89.4 -3.52
06:03 1021 30.15 851 25.13 11 51.7 48 0.5 32.9 -89.4 -3.52
06:04 1021 30.15 851 25.13 11 51.8 48 0.5 33 -89.4 -3.52
06:05 1021 30.15 851 25.13 11 51.8 48 0.6 33.1 -89.4 -3.52
06:06 1021 30.15 851 25.13 11 51.8 49 0.6 33.2 -89.4 -3.52
06:07 1021 30.15 851 25.13 11 51.8 48 0.5 32.9 -89.4 -3.52
06:08 1021 30.15 851 25.13 11 51.7 48 0.3 32.6 -89.4 -3.52
06:09 1021 30.15 851 25.13 11 51.8 48 0.6 33.1 -89.4 -3.52
06:10 1021 30.15 851 25.13 11 51.8 48 0.5 33 -89.4 -3.52
06:11 1021 30.15 851 25.13 11.1 51.9 48 0.5 33 -89.4 -3.52
06:12 1021 30.15 851 25.13 11.1 52 47 0.4 32.7 -89.4 -3.52
06:13 1021 30.15 851 25.13 11.2 52.2 48 0.7 33.2 -89.4 -3.52
06:14 1021 30.15 851 25.13 11.2 52.1 46 0.1 32.1 -89.4 -3.52
06:15 1021 30.15 851 25.13 11.2 52.2 47 0.3 32.6 -89.4 -3.52
06:16 1022 30.18 851 25.13 11.3 52.3 47 0.4 32.7 -89.3 -3.516
06:17 1022 30.18 851 25.13 11.3 52.3 48 0.6 33 -89.3 -3.516
06:18 1022 30.18 851 25.13 11.2 52.2 47 0.4 32.8 -89.3 -3.516
06:19 1022 30.18 851 25.13 11.2 52.2 48 0.6 33.1 -89.3 -3.516
06:20 1022 30.18 851 25.13 11.1 52.1 47 0.2 32.3 -89.3 -3.516
06:21 1022 30.18 851 25.13 11.1 52 48 0.4 32.8 -89.3 -3.516
06:22 1022 30.18 851 25.13 11.1 52.1 47 0.3 32.5 -89.3 -3.516
06:23 1022 30.18 851 25.13 11.2 52.1 47 0.3 32.5 -89.3 -3.516
06:24 1022 30.18 851 25.13 11.2 52.2 47 0.3 32.5 -89.3 -3.516
06:25 1022 30.18 851 25.13 11.2 52.2 47 0.4 32.7 -89.3 -3.516
06:26 1022 30.18 851 25.13 11.2 52.2 47 0.4 32.7 -89.3 -3.516
06:27 1022 30.18 851 25.13 11.2 52.1 47 0.3 32.5 -89.3 -3.516
06:28 1022 30.18 851 25.13 11.2 52.1 47 0.4 32.7 -89.3 -3.516
06:29 1022 30.18 851 25.13 11.1 52 48 0.5 33 -89.3 -3.516
06:30 1022 30.18 851 25.13 11.1 51.9 48 0.6 33.1 -89.3 -3.516
06:31 1022 30.18 851 25.13 11 51.8 46 -0 32 -89.3 -3.516
06:32 1022 30.18 851 25.13 11.1 52 47 0.4 32.7 -89.3 -3.516
06:33 1022 30.18 851 25.13 11.1 52 46 0.1 32.2 -89.3 -3.516
06:34 1022 30.18 851 25.13 11.2 52.1 47 0.3 32.5 -89.3 -3.516
06:35 1022 30.18 851 25.13 11.2 52.1 47 0.4 32.7 -89.3 -3.516
06:36 1022 30.18 851 25.13 11.2 52.1 47 0.4 32.8 -89.3 -3.516
06:37 1022 30.18 851 25.13 11.1 52 47 0.4 32.7 -89.3 -3.516
06:38 1022 30.18 851 25.13 11.1 52 48 0.5 32.9 -89.3 -3.516
06:39 1022 30.18 851 25.13 11 51.8 48 0.4 32.7 -89.3 -3.516
06:40 1022 30.18 851 25.13 11 51.7 48 0.5 32.9 -89.3 -3.516
06:41 1022 30.18 851 25.13 10.9 51.6 48 0.5 32.9 -89.3 -3.516
06:42 1022 30.18 851 25.13 10.8 51.4 49 0.5 33 -89.3 -3.516
06:43 1022 30.18 851 25.13 10.8 51.4 49 0.5 32.9 -89.3 -3.516
06:44 1022 30.18 851 25.13 10.7 51.3 49 0.5 32.9 -89.3 -3.516
06:45 1022 30.18 851 25.13 10.7 51.2 49 0.5 32.9 -89.3 -3.516
06:46 1022 30.18 851 25.13 10.6 51 50 0.5 33 -89.3 -3.516
06:47 1022 30.18 851 25.13 10.6 51 50 0.6 33 -89.3 -3.516
06:48 1022 30.18 851 25.13 10.5 51 49 0.3 32.6 -89.3 -3.516
06:49 1022 30.18 851 25.13 10.5 50.9 49 0.3 32.5 -89.3 -3.516
06:50 1022 30.18 851 25.13 10.6 51.1 48 0.2 32.3 -89.3 -3.516
06:51 1022 30.18 851 25.13 10.7 51.2 48 0.3 32.5 -89.3 -3.516
06:52 1022 30.18 851 25.13 10.7 51.2 48 0.2 32.3 -89.3 -3.516
06:53 1022 30.18 851 25.13 10.6 51.2 49 0.4 32.7 -89.3 -3.516
06:54 1022 30.18 851 25.13 10.7 51.2 49 0.3 32.6 -89.3 -3.516
06:55 1022 30.18 851 25.13 10.6 51.2 49 0.4 32.7 -89.3 -3.516
06:56 1022 30.18 851 25.13 10.6 51.1 49 0.5 32.9 -89.3 -3.516
06:57 1022 30.18 851 25.13 10.6 51.1 48 0.2 32.4 -89.3 -3.516
06:58 1022 30.18 851 25.13 10.7 51.2 47 -0.1 31.9 -89.3 -3.516
06:59 1022 30.18 851 25.13 10.8 51.5 47 0.1 32.2 -89.3 -3.516
07:00 1022 30.18 851 25.13 10.9 51.7 48 0.5 32.8 -89.3 -3.516
07:01 1022 30.18 851 25.13 10.9 51.5 49 0.6 33 -89.3 -3.516
07:02 1022 30.18 851 25.13 10.8 51.4 47 0.1 32.2 -89.3 -3.516
07:03 1022 30.18 851 25.13 10.9 51.6 47 0.2 32.3 -89.3 -3.516
07:04 1022 30.18 851 25.13 10.9 51.6 47 0 32 -89.3 -3.516
07:05 1022 30.18 851 25.13 11 51.8 47 0.2 32.4 -89.3 -3.516
07:06 1022 30.18 851 25.13 11.1 52 47 0.4 32.7 -89.3 -3.516
07:07 1022 30.18 851 25.13 11.1 52 47 0.3 32.6 -89.3 -3.516
07:08 1022 30.18 851 25.13 11 51.9 48 0.6 33.1 -89.3 -3.516
07:09 1022 30.18 851 25.13 11 51.8 48 0.4 32.8 -89.3 -3.516
07:10 1022 30.18 851 25.13 11 51.8 48 0.5 32.9 -89.3 -3.516
07:11 1022 30.18 851 25.13 11 51.8 49 0.7 33.2 -89.3 -3.516
07:12 1022 30.18 851 25.13 10.9 51.7 49 0.8 33.5 -89.3 -3.516
07:13 1022 30.18 851 25.13 10.8 51.5 50 0.8 33.5 -89.3 -3.516
07:14 1022 30.18 851 25.13 10.8 51.4 49 0.6 33.1 -89.3 -3.516
07:15 1022 30.18 851 25.13 10.7 51.3 50 0.8 33.4 -89.3 -3.516
07:16 1022 30.18 851 25.13 10.6 51.1 51 0.8 33.5 -89.3 -3.516
07:17 1022 30.18 851 25.13 10.6 51 50 0.6 33.1 -89.3 -3.516
07:18 1022 30.18 851 25.13 10.5 50.9 50 0.6 33.1 -89.3 -3.516
07:19 1022 30.18 851 25.13 10.4 50.7 51 0.8 33.4 -89.3 -3.516
07:20 1022 30.18 851 25.13 10.3 50.6 52 0.8 33.5 -89.3 -3.516
07:21 1022 30.18 851 25.13 10.2 50.4 52 0.9 33.7 -89.3 -3.516
07:22 1022 30.18 851 25.13 10.1 50.3 52 0.6 33.1 -89.3 -3.516
07:23 1022 30.18 851 25.13 10.1 50.1 53 0.8 33.5 -89.3 -3.516
07:24 1022 30.18 851 25.13 10 50 53 1 33.8 -89.3 -3.516
07:25 1022 30.18 851 25.13 9.9 49.9 53 0.8 33.5 -89.3 -3.516
07:26 1022 30.18 851 25.13 9.9 49.8 53 0.7 33.2 -89.3 -3.516
07:27 1022 30.18 851 25.13 9.9 49.8 53 0.9 33.6 -89.3 -3.516
07:28 1022 30.18 851 25.13 9.8 49.7 53 0.7 33.3 -89.3 -3.516
07:29 1022 30.18 851 25.13 9.9 49.8 52 0.6 33 -89.3 -3.516
07:30 1022 30.18 851 25.13 10 50.1 53 0.9 33.6 -89.3 -3.516
07:31 1022 30.18 851 25.13 10 50 53 1 33.8 -89.3 -3.516
07:32 1022 30.18 851 25.13 9.9 49.8 54 1 33.9 -89.3 -3.516
07:33 1022 30.18 851 25.13 9.8 49.7 54 1.1 33.9 -89.3 -3.516
07:34 1022 30.18 851 25.13 9.7 49.4 55 1.1 33.9 -89.3 -3.516
07:35 1022 30.18 851 25.13 9.6 49.2 55 1.1 34 -89.3 -3.516
07:36 1022 30.18 851 25.13 9.5 49 56 1.1 33.9 -89.3 -3.516
07:37 1022 30.18 851 25.13 9.4 48.9 56 1.1 34 -89.3 -3.516
07:38 1022 30.18 851 25.13 9.3 48.7 57 1.2 34.2 -89.3 -3.516
07:39 1022 30.18 851 25.13 9.2 48.5 58 1.3 34.4 -89.3 -3.516
07:40 1022 30.18 851 25.13 9 48.3 59 1.4 34.5 -89.3 -3.516
07:41 1022 30.18 851 25.13 8.9 48 58 1.2 34.2 -89.3 -3.516
07:42 1022 30.18 851 25.13 8.8 47.9 58 0.9 33.7 -89.3 -3.516
07:43 1022 30.18 851 25.13 8.9 48 56 0.7 33.2 -89.4 -3.52
07:44 1022 30.18 851 25.13 9.1 48.4 55 0.6 33 -89.3 -3.516
07:45 1022 30.18 851 25.13 9.3 48.8 55 0.8 33.5 -89.3 -3.516
07:46 1022 30.18 851 25.13 9.5 49 54 0.8 33.4 -89.4 -3.52
07:47 1022 30.18 851 25.13 9.5 49.1 55 1 33.9 -89.4 -3.52
07:48 1022 30.18 851 25.13 9.5 49.1 56 1.2 34.1 -89.4 -3.52
07:49 1022 30.18 851 25.13 9.4 49 55 0.9 33.6 -89.4 -3.52
07:50 1022 30.18 851 25.13 9.5 49 55 1 33.8 -89.4 -3.52
07:51 1022 30.18 851 25.13 9.5 49.1 55 1 33.9 -89.4 -3.52
07:52 1022 30.18 851 25.13 9.5 49.2 56 1.2 34.1 -89.4 -3.52
07:53 1022 30.18 851 25.13 9.5 49.1 56 1.1 34 -89.4 -3.52
07:54 1022 30.18 851 25.13 9.5 49 56 1 33.9 -89.4 -3.52
07:55 1022 30.18 851 25.13 9.5 49.1 56 1.1 34 -89.4 -3.52
07:56 1022 30.18 851 25.13 9.5 49.1 55 1 33.9 -89.4 -3.52
07:57 1022 30.18 851 25.13 9.5 49 55 0.9 33.7 -89.4 -3.52
07:58 1022 30.18 851 25.13 9.5 49.1 55 1 33.9 -89.4 -3.52
07:59 1022 30.18 851 25.13 9.5 49.1 55 0.8 33.5 -89.4 -3.52
08:00 1022 30.18 851 25.13 9.6 49.2 54 0.9 33.5 -89.4 -3.52
08:01 1022 30.18 851 25.13 9.7 49.4 54 0.8 33.4 -89.4 -3.52
08:02 1022 30.18 851 25.13 9.8 49.7 52 0.4 32.8 -89.4 -3.52
08:03 1022 30.18 851 25.13 10.1 50.2 51 0.6 33.1 -89.4 -3.52
08:04 1022 30.18 851 25.13 10.3 50.5 52 1 33.8 -89.4 -3.52
08:05 1022 30.18 851 25.13 10.3 50.5 53 1.1 33.9 -89.4 -3.52
08:06 1022 30.18 851 25.13 10.2 50.4 52 0.8 33.5 -89.4 -3.52
08:07 1022 30.18 851 25.13 10.2 50.3 52 0.7 33.2 -89.4 -3.52
08:08 1022 30.18 851 25.13 10.2 50.4 52 0.8 33.5 -89.4 -3.52
08:09 1022 30.18 851 25.13 10.2 50.4 53 1.2 34.2 -89.4 -3.52
08:10 1022 30.18 851 25.13 10.1 50.2 51 0.6 33 -89.4 -3.52
08:11 1022 30.18 851 25.13 10.2 50.4 52 0.8 33.4 -89.4 -3.52
08:12 1022 30.18 851 25.13 10.3 50.6 51 0.6 33.1 -89.4 -3.52
08:13 1022 30.18 851 25.13 10.4 50.7 51 0.7 33.2 -89.4 -3.52
08:14 1022 30.18 851 25.13 10.5 50.9 50 0.6 33 -89.4 -3.52
08:15 1022 30.18 851 25.13 10.6 51.1 50 0.7 33.3 -89.4 -3.52
08:16 1022 30.18 851 25.13 10.6 51 51 1 33.8 -89.4 -3.52
08:17 1022 30.18 851 25.13 10.5 50.8 52 1 33.9 -89.4 -3.52
08:18 1022 30.18 851 25.13 10.4 50.7 52 1 33.9 -89.4 -3.52
08:19 1022 30.18 851 25.13 10.4 50.6 51 0.8 33.5 -89.4 -3.52
08:20 1022 30.18 851 25.13 10.4 50.7 51 0.7 33.2 -89.4 -3.52
08:21 1022 30.18 851 25.13 10.4 50.8 50 0.6 33.1 -89.4 -3.52
08:22 1022 30.18 851 25.13 10.5 50.9 50 0.6 33 -89.4 -3.52
08:23 1022 30.18 851 25.13 10.7 51.2 51 1 33.9 -89.4 -3.52
08:24 1022 30.18 851 25.13 10.6 51.1 52 1.2 34.2 -89.4 -3.52
08:25 1022 30.18 851 25.13 10.5 50.9 51 0.7 33.3 -89.4 -3.52
08:26 1022 30.18 851 25.13 10.4 50.8 51 0.9 33.5 -89.4 -3.52
08:27 1022 30.18 851 25.13 10.4 50.8 52 1.2 34.1 -89.4 -3.52
08:28 1022 30.18 851 25.13 10.4 50.8 54 1.5 34.7 -89.4 -3.52
08:29 1022 30.18 851 25.13 10.4 50.7 53 1.3 34.3 -89.4 -3.52
08:30 1022 30.18 851 25.13 10.3 50.6 52 0.8 33.5 -89.4 -3.52
08:31 1022 30.18 851 25.13 10.4 50.7 52 1 33.7 -89.4 -3.52
08:32 1022 30.18 851 25.13 10.4 50.8 52 0.9 33.7 -89.4 -3.52
08:33 1022 30.18 851 25.13 10.5 50.8 52 1.1 33.9 -89.4 -3.52
08:34 1022 30.18 851 25.13 10.4 50.7 51 0.8 33.4 -89.4 -3.52
08:35 1022 30.18 851 25.13 10.4 50.7 52 1.1 34 -89.4 -3.52
08:36 1022 30.18 851 25.13 10.4 50.6 53 1.4 34.5 -89.4 -3.52
08:37 1022 30.18 851 25.13 10.2 50.4 53 1.1 34 -89.4 -3.52
08:38 1022 30.18 851 25.13 10.1 50.2 54 1.2 34.2 -89.4 -3.52
08:39 1022 30.18 851 25.13 10 50 55 1.4 34.4 -89.4 -3.52
08:40 1022 30.18 851 25.13 9.9 49.8 54 1.1 34 -89.4 -3.52
08:41 1022 30.18 851 25.13 9.9 49.7 55 1.4 34.5 -89.4 -3.52
08:42 1022 30.18 852 25.16 9.8 49.6 56 1.4 34.6 -89.4 -3.52
08:43 1022 30.18 852 25.16 9.7 49.4 57 1.5 34.8 -89.4 -3.52
08:44 1022 30.18 852 25.16 9.6 49.3 56 1.4 34.5 -89.4 -3.52
08:45 1022 30.18 852 25.16 9.6 49.3 57 1.4 34.5 -89.4 -3.52
08:46 1022 30.18 852 25.16 9.6 49.2 56 1.4 34.5 -89.4 -3.52
08:47 1022 30.18 852 25.16 9.5 49.2 57 1.4 34.5 -89.4 -3.52
08:48 1023 30.21 852 25.16 9.5 49.1 57 1.5 34.8 -89.3 -3.516
08:49 1023 30.21 852 25.16 9.4 49 58 1.5 34.8 -89.3 -3.516
08:50 1023 30.21 852 25.16 9.4 49 58 1.5 34.8 -89.3 -3.516
08:51 1023 30.21 852 25.16 9.5 49 57 1.4 34.6 -89.3 -3.516
08:52 1023 30.21 852 25.16 9.6 49.2 57 1.5 34.7 -89.3 -3.516
08:53 1023 30.21 852 25.16 9.7 49.4 58 1.7 35.1 -89.3 -3.516
08:54 1023 30.21 852 25.16 9.7 49.4 56 1.3 34.4 -89.3 -3.516
08:55 1023 30.21 852 25.16 9.7 49.4 57 1.6 34.8 -89.3 -3.516
08:56 1023 30.21 852 25.16 9.7 49.4 58 1.7 35.1 -89.3 -3.516
08:57 1023 30.21 852 25.16 9.7 49.4 57 1.5 34.8 -89.3 -3.516
08:58 1023 30.21 852 25.16 9.7 49.5 57 1.6 34.8 -89.3 -3.516
08:59 1023 30.21 852 25.16 9.7 49.5 57 1.6 34.9 -89.3 -3.516
09:00 1023 30.21 852 25.16 9.7 49.5 56 1.5 34.6 -89.3 -3.516
09:01 1023 30.21 852 25.16 9.8 49.6 56 1.4 34.6 -89.3 -3.516
09:02 1023 30.21 852 25.16 9.8 49.7 56 1.4 34.6 -89.3 -3.516
09:03 1023 30.21 852 25.16 10 49.9 55 1.4 34.5 -89.3 -3.516
09:04 1023 30.21 852 25.16 10.1 50.2 54 1.4 34.4 -89.3 -3.516
09:05 1023 30.21 852 25.16 10.1 50.3 55 1.6 34.9 -89.3 -3.516
09:06 1023 30.21 852 25.16 10.3 50.5 55 1.6 34.9 -89.3 -3.516
09:07 1023 30.21 852 25.16 10.3 50.6 54 1.5 34.7 -89.3 -3.516
09:08 1023 30.21 852 25.16 10.4 50.7 53 1.3 34.3 -89.3 -3.516
09:09 1023 30.21 852 25.16 10.4 50.7 54 1.5 34.7 -89.3 -3.516
09:10 1023 30.21 852 25.16 10.3 50.6 55 1.7 35 -89.3 -3.516
09:11 1023 30.21 852 25.16 10.3 50.5 54 1.5 34.8 -89.3 -3.516
09:12 1023 30.21 852 25.16 10.2 50.4 55 1.5 34.8 -89.3 -3.516
09:13 1023 30.21 852 25.16 10.2 50.3 54 1.4 34.6 -89.3 -3.516
09:14 1023 30.21 852 25.16 10.2 50.4 55 1.7 35 -89.3 -3.516
09:15 1023 30.21 852 25.16 10.2 50.3 54 1.3 34.3 -89.3 -3.516
09:16 1023 30.21 852 25.16 10.2 50.3 55 1.6 34.9 -89.3 -3.516
09:17 1023 30.21 852 25.16 10.2 50.3 54 1.4 34.4 -89.3 -3.516
09:18 1023 30.21 852 25.16 10.1 50.2 54 1.2 34.2 -89.3 -3.516
09:19 1023 30.21 852 25.16 10.1 50.3 54 1.4 34.5 -89.3 -3.516
09:20 1023 30.21 852 25.16 10.1 50.2 55 1.7 35 -89.3 -3.516
09:21 1023 30.21 852 25.16 10.1 50.1 56 1.6 34.9 -89.3 -3.516
09:22 1023 30.21 852 25.16 10.1 50.1 56 1.6 34.9 -89.3 -3.516
09:23 1023 30.21 852 25.16 10 50 56 1.7 35 -89.3 -3.516
09:24 1023 30.21 852 25.16 10 50.1 56 1.7 35.1 -89.3 -3.516
09:25 1023 30.21 852 25.16 10 49.9 57 1.8 35.2 -89.3 -3.516
09:26 1023 30.21 852 25.16 9.9 49.9 57 1.9 35.4 -89.3 -3.516
09:27 1023 30.21 852 25.16 9.9 49.9 58 2 35.6 -89.3 -3.516
09:28 1023 30.21 852 25.16 10 50 57 1.9 35.4 -89.3 -3.516
09:29 1023 30.21 852 25.16 10.3 50.5 57 2.2 36 -89.2 -3.512
09:30 1023 30.21 852 25.16 10.5 50.8 55 1.7 35.1 -89.2 -3.512
09:31 1023 30.21 852 25.16 10.5 51 55 1.9 35.5 -89.2 -3.512
09:32 1023 30.21 852 25.16 10.5 50.8 55 1.8 35.3 -89.3 -3.516
09:33 1023 30.21 852 25.16 10.5 50.9 55 1.9 35.4 -89.2 -3.512
09:34 1023 30.21 852 25.16 10.6 51.1 54 1.8 35.2 -89.2 -3.512
09:35 1023 30.21 852 25.16 10.7 51.3 54 1.9 35.5 -89.2 -3.512
09:36 1023 30.21 852 25.16 10.8 51.4 55 2.2 35.9 -89.2 -3.512
09:37 1023 30.21 852 25.16 10.6 51.1 56 2.3 36.1 -89.2 -3.512
09:38 1023 30.21 852 25.16 10.5 50.9 55 1.9 35.5 -89.2 -3.512
09:39 1023 30.21 852 25.16 10.4 50.7 55 1.8 35.2 -89.2 -3.512
09:40 1022 30.18 852 25.16 10.3 50.5 55 1.6 34.9 -89.2 -3.512
09:41 1023 30.21 852 25.16 10.3 50.6 54 1.4 34.6 -89.2 -3.512
09:42 1022 30.18 852 25.16 10.6 51 53 1.6 34.8 -89.2 -3.512
09:43 1023 30.21 852 25.16 10.9 51.6 54 2 35.6 -89.2 -3.512
09:44 1023 30.21 852 25.16 11.1 52 53 1.8 35.3 -89.2 -3.512
09:45 1023 30.21 852 25.16 11.4 52.5 51 1.7 35 -89.2 -3.512
09:46 1023 30.21 852 25.16 11.5 52.8 52 2 35.7 -89.2 -3.512
09:47 1023 30.21 852 25.16 11.6 52.9 51 1.8 35.3 -89.2 -3.512
09:48 1022 30.18 852 25.16 11.5 52.7 53 2.3 36.1 -89.1 -3.508
09:49 1023 30.21 852 25.16 11.4 52.5 53 2.3 36.1 -89.1 -3.508
09:50 1022 30.18 852 25.16 11.3 52.3 51 1.7 35 -89.1 -3.508
09:51 1023 30.21 852 25.16 11.3 52.4 52 2 35.5 -89.1 -3.508
09:52 1022 30.18 852 25.16 11.3 52.3 50 1.4 34.5 -89.1 -3.508
09:53 1022 30.18 852 25.16 11.3 52.3 50 1.3 34.3 -89.1 -3.508
09:54 1022 30.18 852 25.16 11.3 52.4 52 1.8 35.3 -89.1 -3.508
09:55 1022 30.18 852 25.16 11.4 52.4 52 1.8 35.2 -89.1 -3.508
09:56 1022 30.18 852 25.16 11.4 52.4 52 1.9 35.4 -89.1 -3.508
09:57 1022 30.18 852 25.16 11.3 52.4 51 1.6 34.9 -89.1 -3.508
09:58 1022 30.18 852 25.16 11.4 52.5 51 1.6 34.8 -89.1 -3.508
09:59 1022 30.18 852 25.16 11.4 52.5 52 1.9 35.4 -89.1 -3.508
10:00 1022 30.18 852 25.16 11.4 52.5 52 1.9 35.4 -89.1 -3.508
10:01 1022 30.18 852 25.16 11.4 52.6 52 2 35.7 -89.1 -3.508
10:02 1022 30.18 852 25.16 11.6 52.9 49 1.5 34.6 -89.1 -3.508
10:03 1022 30.18 852 25.16 12 53.5 50 1.8 35.2 -89 -3.504
10:04 1022 30.18 852 25.16 12.2 54 47 1.4 34.5 -89 -3.504
10:05 1022 30.18 852 25.16 12.4 54.4 48 1.8 35.2 -89 -3.504
10:06 1022 30.18 852 25.16 12.6 54.7 48 2 35.6 -89 -3.504
10:07 1022 30.18 852 25.16 12.8 55 49 2.5 36.6 -89 -3.504
10:08 1022 30.18 852 25.16 12.9 55.3 46 1.7 35 -89 -3.504
10:09 1022 30.18 852 25.16 12.9 55.3 47 1.9 35.4 -89 -3.504
10:10 1022 30.18 852 25.16 12.9 55.3 45 1.5 34.7 -89 -3.504
10:11 1022 30.18 852 25.16 13 55.4 48 2.3 36.2 -88.9 -3.5
10:12 1022 30.18 852 25.16 13.2 55.7 44 1.3 34.3 -88.9 -3.5
10:13 1022 30.18 852 25.16 13.2 55.7 45 1.5 34.8 -88.9 -3.5
10:14 1022 30.18 852 25.16 13.2 55.7 44 1.3 34.4 -88.9 -3.5
10:15 1022 30.18 852 25.16 13.2 55.8 44 1.4 34.5 -88.8 -3.496
10:16 1022 30.18 852 25.16 13.2 55.7 45 1.5 34.7 -88.8 -3.496
10:17 1022 30.18 852 25.16 13.1 55.6 46 1.7 35.1 -88.8 -3.496
10:18 1022 30.18 852 25.16 13.2 55.7 46 1.9 35.5 -88.8 -3.496
10:19 1022 30.18 852 25.16 13.2 55.7 44 1.4 34.4 -88.8 -3.496
10:20 1022 30.18 852 25.16 13.1 55.6 46 1.9 35.4 -88.8 -3.496
10:21 1022 30.18 852 25.16 13.1 55.5 45 1.6 34.9 -88.7 -3.492
10:22 1022 30.18 852 25.16 13.1 55.5 46 1.9 35.4 -88.7 -3.492
10:23 1022 30.18 852 25.16 13.1 55.5 45 1.6 34.9 -88.7 -3.492
10:24 1022 30.18 852 25.16 13.1 55.7 45 1.7 35 -88.7 -3.492
10:25 1022 30.18 852 25.16 13.1 55.6 45 1.5 34.7 -88.6 -3.488
10:26 1022 30.18 852 25.16 13.2 55.7 45 1.7 35.1 -88.6 -3.488
10:27 1022 30.18 852 25.16 13.2 55.8 45 1.6 34.9 -88.6 -3.488
10:28 1022 30.18 852 25.16 13.3 55.9 45 1.6 34.8 -88.6 -3.488
10:29 1022 30.18 852 25.16 13.2 55.8 45 1.7 35.1 -88.6 -3.488
10:30 1022 30.18 852 25.16 13.3 55.9 46 1.9 35.5 -88.6 -3.488
10:31 1022 30.18 852 25.16 13.3 55.9 43 1.1 34.1 -88.5 -3.484
10:32 1022 30.18 852 25.16 13.4 56.1 45 1.8 35.3 -88.5 -3.484
10:33 1022 30.18 852 25.16 13.4 56.2 41 0.5 33 -88.5 -3.484
10:34 1022 30.18 852 25.16 13.5 56.2 40 0.1 32.1 -88.5 -3.484
10:35 1022 30.18 852 25.16 13.5 56.4 41 0.8 33.4 -88.5 -3.484
10:36 1022 30.18 852 25.16 13.6 56.5 42 0.9 33.5 -88.4 -3.48
10:37 1022 30.18 852 25.16 13.6 56.6 41 0.7 33.2 -88.4 -3.48
10:38 1022 30.18 852 25.16 13.7 56.7 40 0.5 32.8 -88.4 -3.48
10:39 1022 30.18 851 25.13 13.8 56.8 41 0.9 33.7 -88.4 -3.48
10:40 1022 30.18 852 25.16 13.9 56.9 40 0.6 33.1 -88.4 -3.48
10:41 1022 30.18 852 25.16 13.9 57 40 0.6 33.1 -88.4 -3.48
10:42 1022 30.18 852 25.16 13.8 56.8 41 0.7 33.2 -88.4 -3.48
10:43 1022 30.18 852 25.16 13.7 56.7 40 0.5 32.8 -88.3 -3.476
10:44 1022 30.18 851 25.13 13.7 56.7 40 0.5 32.8 -88.3 -3.476
10:45 1022 30.18 852 25.16 13.7 56.7 39 0.3 32.5 -88.3 -3.476
10:46 1022 30.18 852 25.16 13.8 56.8 38 -0.1 31.8 -88.3 -3.476
10:47 1022 30.18 851 25.13 13.8 56.8 40 0.7 33.2 -88.3 -3.476
10:48 1022 30.18 851 25.13 13.9 57 40 0.5 32.8 -88.2 -3.472
10:49 1022 30.18 851 25.13 13.9 57 40 0.6 33.1 -88.2 -3.472
10:50 1022 30.18 851 25.13 14 57.1 39 0.3 32.5 -88.2 -3.472
10:51 1022 30.18 851 25.13 14 57.1 39 0.2 32.3 -88.2 -3.472
10:52 1022 30.18 851 25.13 14 57.1 40 0.8 33.5 -88.2 -3.472
10:53 1022 30.18 851 25.13 14.1 57.3 38 0.1 32.2 -88.2 -3.472
10:54 1022 30.18 851 25.13 14.1 57.4 37 -0.1 31.8 -88.2 -3.472
10:55 1022 30.18 851 25.13 14.1 57.4 39 0.4 32.6 -88.1 -3.469
10:56 1022 30.18 851 25.13 14.2 57.6 39 0.5 32.8 -88.1 -3.469
10:57 1022 30.18 851 25.13 14.2 57.6 39 0.5 32.9 -88.1 -3.469
10:58 1022 30.18 851 25.13 14.3 57.7 38 0.3 32.5 -88.1 -3.469
10:59 1022 30.18 851 25.13 14.4 57.8 38 0.5 32.9 -88.1 -3.469
11:00 1022 30.18 851 25.13 14.4 57.9 38 0.5 32.9 -88.1 -3.469
11:01 1022 30.18 851 25.13 14.4 57.9 37 0.1 32.2 -88.1 -3.469
11:02 1022 30.18 851 25.13 14.3 57.8 39 0.8 33.4 -88 -3.465
11:03 1022 30.18 851 25.13 14.4 58 37 0 32 -88 -3.465
11:04 1022 30.18 851 25.13 14.4 57.9 40 0.9 33.7 -88 -3.465
11:05 1022 30.18 851 25.13 14.4 57.9 39 0.6 33.1 -88 -3.465
11:06 1022 30.18 851 25.13 14.3 57.8 39 0.5 33 -88 -3.465
11:07 1022 30.18 851 25.13 14.4 57.9 38 0.4 32.7 -88 -3.465
11:08 1022 30.18 851 25.13 14.5 58.1 36 -0.2 31.7 -87.9 -3.461
11:09 1022 30.18 851 25.13 14.6 58.3 38 0.6 33 -87.9 -3.461
11:10 1022 30.18 851 25.13 14.6 58.3 38 0.6 33 -87.9 -3.461
11:11 1022 30.18 851 25.13 14.8 58.6 35 -0.5 31.1 -87.9 -3.461
11:12 1022 30.18 851 25.13 14.9 58.8 35 -0.5 31.1 -87.9 -3.461
11:13 1022 30.18 851 25.13 14.9 58.9 35 -0.5 31.2 -87.8 -3.457
11:14 1022 30.18 851 25.13 15 59 36 0.2 32.3 -87.8 -3.457
11:15 1022 30.18 851 25.13 15 59 36 0.1 32.2 -87.8 -3.457
11:16 1022 30.18 851 25.13 14.8 58.7 35 -0.3 31.5 -87.8 -3.457
11:17 1022 30.18 851 25.13 14.5 58.1 37 0.2 32.3 -87.8 -3.457
11:18 1022 30.18 851 25.13 14.3 57.7 37 -0.3 31.5 -87.8 -3.457
11:19 1022 30.18 851 25.13 14.3 57.7 37 -0.1 31.8 -87.8 -3.457
11:20 1022 30.18 851 25.13 14.4 57.8 38 0.4 32.7 -87.7 -3.453
11:21 1022 30.18 851 25.13 14.2 57.5 38 -0 31.9 -87.7 -3.453
11:22 1022 30.18 851 25.13 14 57.3 38 0.1 32.1 -87.7 -3.453
11:23 1022 30.18 851 25.13 14.1 57.3 39 0.3 32.5 -87.7 -3.453
11:24 1022 30.18 851 25.13 14.1 57.4 38 0 32.1 -87.7 -3.453
11:25 1022 30.18 851 25.13 14.1 57.3 39 0.5 33 -87.7 -3.453
11:26 1022 30.18 851 25.13 14.2 57.5 36 -0.7 30.7 -87.7 -3.453
11:27 1022 30.18 851 25.13 14.3 57.7 39 0.6 33 -87.6 -3.449
11:28 1022 30.18 851 25.13 14.3 57.7 37 0 32.1 -87.6 -3.449
11:29 1022 30.18 851 25.13 14.2 57.6 37 -0.2 31.7 -87.6 -3.449
11:30 1022 30.18 851 25.13 14.3 57.8 37 -0.1 31.7 -87.6 -3.449
11:31 1022 30.18 851 25.13 14.4 57.8 40 1.1 33.9 -87.6 -3.449
11:32 1022 30.18 851 25.13 14.7 58.4 35 -0.4 31.3 -87.6 -3.449
11:33 1022 30.18 851 25.13 14.9 58.8 34 -0.8 30.6 -87.6 -3.449
11:34 1022 30.18 851 25.13 15 59 35 -0.2 31.6 -87.6 -3.449
11:35 1022 30.18 851 25.13 14.9 58.9 34 -0.5 31.1 -87.6 -3.449
11:36 1022 30.18 851 25.13 14.7 58.4 34 -1.1 30.1 -87.6 -3.449
11:37 1022 30.18 851 25.13 14.3 57.7 35 -0.9 30.4 -87.6 -3.449
11:38 1022 30.18 851 25.13 14 57.2 38 0 32 -87.6 -3.449
11:39 1022 30.18 851 25.13 13.8 56.9 38 -0 31.9 -87.6 -3.449
11:40 1022 30.18 851 25.13 13.7 56.6 36 -0.9 30.4 -87.6 -3.449
11:41 1022 30.18 851 25.13 13.6 56.4 39 -0.1 31.8 -87.5 -3.445
11:42 1022 30.18 851 25.13 13.6 56.4 37 -0.6 30.9 -87.5 -3.445
11:43 1022 30.18 851 25.13 13.7 56.7 37 -0.7 30.8 -87.5 -3.445
11:44 1022 30.18 851 25.13 13.8 56.8 37 -0.5 31.1 -87.5 -3.445
11:45 1022 30.18 851 25.13 13.7 56.7 37 -0.6 30.9 -87.5 -3.445
11:46 1022 30.18 851 25.13 13.7 56.6 39 -0.1 31.8 -87.5 -3.445
11:47 1022 30.18 851 25.13 13.6 56.4 40 0.2 32.4 -87.5 -3.445
11:48 1022 30.18 851 25.13 13.5 56.2 39 -0.1 31.7 -87.5 -3.445
11:49 1022 30.18 851 25.13 13.4 56.1 39 -0.3 31.4 -87.5 -3.445
11:50 1022 30.18 851 25.13 13.4 56.1 36 -1.1 30 -87.5 -3.445
11:51 1022 30.18 851 25.13 13.5 56.4 39 0.1 32.2 -87.5 -3.445
11:52 1022 30.18 851 25.13 13.8 56.9 38 -0.2 31.6 -87.5 -3.445
11:53 1022 30.18 851 25.13 14.2 57.5 37 -0.3 31.4 -87.5 -3.445
11:54 1022 30.18 851 25.13 14.4 57.8 35 -0.9 30.4 -87.5 -3.445
11:55 1022 30.18 851 25.13 14.3 57.8 38 0.3 32.6 -87.5 -3.445
11:56 1022 30.18 851 25.13 14.6 58.2 33 -1.6 29.1 -87.5 -3.445
11:57 1022 30.18 851 25.13 14.9 58.7 33 -1.2 29.9 -87.5 -3.445
11:58 1022 30.18 851 25.13 14.9 58.9 32 -1.4 29.5 -87.5 -3.445
11:59 1022 30.18 851 25.13 15 59 33 -1.2 29.8 -87.5 -3.445
12:00 1022 30.18 851 25.13 15.4 59.6 32 -1 30.2 -87.5 -3.445
12:01 1022 30.18 851 25.13 15.7 60.3 31 -1.1 29.9 -87.5 -3.445
12:02 1022 30.18 851 25.13 16 60.8 31 -1.1 30.1 -87.5 -3.445
12:03 1022 30.18 851 25.13 16.1 61 32 -0.4 31.2 -87.5 -3.445
12:04 1022 30.18 851 25.13 16 60.8 31 -0.9 30.4 -87.5 -3.445
12:05 1022 30.18 851 25.13 15.7 60.3 34 0.1 32.2 -87.5 -3.445
12:06 1022 30.18 851 25.13 15.6 60.1 33 -0.4 31.3 -87.5 -3.445
12:07 1022 30.18 851 25.13 15.6 60 33 -0.6 31 -87.5 -3.445
12:08 1022 30.18 851 25.13 15.7 60.3 32 -0.7 30.8 -87.5 -3.445
12:09 1022 30.18 851 25.13 16 60.8 32 -0.6 30.9 -87.4 -3.441
12:10 1022 30.18 851 25.13 16.1 61 31 -0.9 30.3 -87.4 -3.441
12:11 1022 30.18 851 25.13 16.2 61.2 31 -0.6 30.9 -87.4 -3.441
12:12 1022 30.18 851 25.13 16.2 61.2 30 -1.2 29.8 -87.4 -3.441
12:13 1022 30.18 851 25.13 15.9 60.6 31 -1.1 30 -87.4 -3.441
12:14 1022 30.18 851 25.13 15.5 59.9 33 -0.6 30.9 -87.4 -3.441
12:15 1022 30.18 851 25.13 15.3 59.6 31 -1.5 29.4 -87.4 -3.441
12:16 1022 30.18 851 25.13 15.2 59.3 35 -0.1 31.7 -87.4 -3.441
12:17 1022 30.18 851 25.13 15.1 59.1 34 -0.8 30.6 -87.4 -3.441
12:18 1022 30.18 851 25.13 14.8 58.7 33 -1 30.2 -87.4 -3.441
12:19 1022 30.18 851 25.13 14.6 58.3 33 -1.3 29.6 -87.4 -3.441
12:20 1022 30.18 851 25.13 14.5 58.1 32 -1.7 28.9 -87.4 -3.441
12:21 1022 30.18 851 25.13 14.4 58 32 -1.8 28.8 -87.4 -3.441
12:22 1022 30.18 851 25.13 14.4 57.9 33 -1.5 29.3 -87.4 -3.441
12:23 1022 30.18 851 25.13 14.5 58 32 -1.8 28.7 -87.4 -3.441
12:24 1022 30.18 851 25.13 14.5 58.1 32 -1.8 28.8 -87.4 -3.441
12:25 1022 30.18 851 25.13 14.5 58.2 33 -1.3 29.6 -87.4 -3.441
12:26 1022 30.18 851 25.13 14.6 58.2 33 -1.6 29.1 -87.4 -3.441
12:27 1022 30.18 851 25.13 14.9 58.8 31 -2 28.4 -87.4 -3.441
12:28 1022 30.18 851 25.13 15.4 59.7 31 -1.5 29.4 -87.4 -3.441
12:29 1022 30.18 851 25.13 15.6 60 31 -1.4 29.4 -87.4 -3.441
12:30 1022 30.18 851 25.13 15.5 59.9 31 -1.5 29.3 -87.4 -3.441
12:31 1022 30.18 851 25.13 15.3 59.5 31 -1.8 28.8 -87.4 -3.441
12:32 1022 30.18 851 25.13 15.2 59.3 31 -1.6 29.2 -87.4 -3.441
12:33 1022 30.18 851 25.13 15.1 59.1 31 -1.7 28.9 -87.4 -3.441
12:34 1022 30.18 851 25.13 15 59 31 -1.8 28.8 -87.4 -3.441
12:35 1022 30.18 851 25.13 14.9 58.9 33 -0.9 30.4 -87.3 -3.437
12:36 1022 30.18 851 25.13 14.8 58.7 33 -1.4 29.5 -87.3 -3.437
12:37 1022 30.18 851 25.13 14.8 58.6 32 -1.8 28.7 -87.4 -3.441
12:38 1022 30.18 851 25.13 14.7 58.5 32 -1.8 28.8 -87.4 -3.441
12:39 1022 30.18 851 25.13 14.7 58.4 33 -1.2 29.8 -87.4 -3.441
12:40 1022 30.18 851 25.13 14.7 58.4 35 -0.7 30.8 -87.4 -3.441
12:41 1022 30.18 851 25.13 14.7 58.4 33 -1.4 29.4 -87.4 -3.441
12:42 1022 30.18 851 25.13 14.7 58.5 33 -1.2 29.8 -87.4 -3.441
12:43 1022 30.18 851 25.13 14.8 58.7 31 -2 28.4 -87.4 -3.441
12:44 1022 30.18 851 25.13 14.8 58.6 30 -2.4 27.6 -87.4 -3.441
12:45 1022 30.18 851 25.13 14.7 58.5 31 -2.1 28.3 -87.4 -3.441
12:46 1022 30.18 851 25.13 14.7 58.4 32 -1.8 28.8 -87.4 -3.441
12:47 1022 30.18 851 25.13 14.6 58.3 31 -2.4 27.7 -87.4 -3.441
12:48 1022 30.18 851 25.13 14.6 58.3 31 -2.1 28.3 -87.4 -3.441
12:49 1022 30.18 851 25.13 14.6 58.3 32 -2 28.4 -87.4 -3.441
12:50 1022 30.18 851 25.13 14.6 58.3 32 -2 28.3 -87.4 -3.441
12:51 1022 30.18 851 25.13 14.6 58.2 31 -2.1 28.2 -87.4 -3.441
12:52 1022 30.18 851 25.13 14.5 58.2 32 -2 28.3 -87.4 -3.441
12:53 1022 30.18 851 25.13 14.6 58.2 33 -1.4 29.5 -87.4 -3.441
12:54 1022 30.18 851 25.13 14.5 58.1 33 -1.5 29.3 -87.4 -3.441
12:55 1022 30.18 851 25.13 14.5 58 33 -1.4 29.5 -87.4 -3.441
12:56 1022 30.18 851 25.13 14.3 57.8 32 -2 28.5 -87.4 -3.441
12:57 1022 30.18 851 25.13 14.2 57.6 33 -1.9 28.6 -87.4 -3.441
12:58 1022 30.18 851 25.13 14.1 57.4 33 -1.7 29 -87.5 -3.445
12:59 1022 30.18 851 25.13 14.1 57.3 33 -1.8 28.8 -87.5 -3.445
13:00 1022 30.18 851 25.13 14.2 57.6 33 -1.6 29 -87.5 -3.445
13:01 1022 30.18 851 25.13 14.3 57.8 34 -1.2 29.8 -87.5 -3.445
13:02 1022 30.18 851 25.13 14.4 57.9 34 -1.3 29.6 -87.5 -3.445
13:03 1022 30.18 851 25.13 14.4 58 32 -2.1 28.1 -87.5 -3.445
13:04 1022 30.18 851 25.13 14.5 58.1 32 -1.9 28.5 -87.5 -3.445
13:05 1022 30.18 851 25.13 14.6 58.3 31 -2.4 27.7 -87.5 -3.445
13:06 1022 30.18 851 25.13 14.6 58.2 33 -1.4 29.5 -87.5 -3.445
13:07 1022 30.18 851 25.13 14.8 58.6 31 -2 28.4 -87.4 -3.441
13:08 1022 30.18 851 25.13 15.1 59.1 31 -1.7 28.9 -87.4 -3.441
13:09 1022 30.18 851 25.13 15.1 59.3 31 -1.7 28.9 -87.4 -3.441
13:10 1022 30.18 851 25.13 15.3 59.5 31 -1.7 28.9 -87.5 -3.445
13:11 1022 30.18 851 25.13 15.2 59.4 30 -2.2 28.1 -87.4 -3.441
13:12 1022 30.18 851 25.13 15.3 59.5 31 -1.8 28.7 -87.4 -3.441
13:13 1021 30.15 851 25.13 15.3 59.5 29 -2.7 27.1 -87.4 -3.441
13:14 1022 30.18 851 25.13 15.2 59.4 29 -2.5 27.5 -87.4 -3.441
13:15 1021 30.15 851 25.13 15.5 59.9 30 -2 28.4 -87.4 -3.441
13:16 1021 30.15 851 25.13 15.8 60.5 31 -1.3 29.7 -87.4 -3.441
13:17 1021 30.15 851 25.13 15.9 60.6 29 -2.2 28.1 -87.4 -3.441
13:18 1021 30.15 851 25.13 15.8 60.5 29 -1.9 28.6 -87.4 -3.441
13:19 1021 30.15 851 25.13 15.9 60.6 29 -2.2 28 -87.4 -3.441
13:20 1021 30.15 851 25.13 15.9 60.6 29 -2.1 28.3 -87.4 -3.441
13:21 1021 30.15 851 25.13 15.6 60.1 30 -2 28.4 -87.4 -3.441
13:22 1021 30.15 851 25.13 15.4 59.7 30 -2.1 28.2 -87.4 -3.441
13:23 1021 30.15 851 25.13 15.2 59.3 30 -2.2 28 -87.4 -3.441
13:24 1021 30.15 851 25.13 15.1 59.1 31 -2 28.3 -87.4 -3.441
13:25 1021 30.15 851 25.13 14.9 58.9 31 -1.7 28.9 -87.4 -3.441
13:26 1021 30.15 851 25.13 14.9 58.8 31 -2.2 28.1 -87.4 -3.441
13:27 1021 30.15 851 25.13 14.9 58.8 32 -1.7 28.9 -87.4 -3.441
13:28 1021 30.15 851 25.13 14.9 58.8 32 -1.7 28.9 -87.3 -3.437
13:29 1021 30.15 851 25.13 15 59 31 -1.8 28.7 -87.3 -3.437
13:30 1021 30.15 851 25.13 15 59 32 -1.3 29.7 -87.3 -3.437
13:31 1021 30.15 851 25.13 15 59 32 -1.6 29.2 -87.3 -3.437
13:32 1021 30.15 850 25.1 15 58.9 32 -1.6 29.2 -87.3 -3.437
13:33 1021 30.15 850 25.1 15 58.9 31 -2.1 28.3 -87.3 -3.437
13:34 1021 30.15 851 25.13 14.9 58.9 31 -1.9 28.7 -87.3 -3.437
13:35 1021 30.15 850 25.1 15 59 30 -2.1 28.2 -87.3 -3.437
13:36 1021 30.15 850 25.1 14.9 58.8 31 -2 28.4 -87.3 -3.437
13:37 1021 30.15 850 25.1 14.8 58.7 31 -2.1 28.2 -87.3 -3.437
13:38 1021 30.15 850 25.1 14.8 58.6 31 -2.3 27.8 -87.3 -3.437
13:39 1021 30.15 850 25.1 14.6 58.3 31 -2.1 28.1 -87.3 -3.437
13:40 1021 30.15 850 25.1 14.5 58.2 30 -2.7 27.1 -87.3 -3.437
13:41 1021 30.15 850 25.1 14.5 58.1 31 -2.5 27.5 -87.3 -3.437
13:42 1021 30.15 850 25.1 14.5 58.1 30 -2.8 26.9 -87.3 -3.437
13:43 1021 30.15 850 25.1 14.5 58.1 31 -2.4 27.6 -87.3 -3.437
13:44 1021 30.15 850 25.1 14.5 58.1 30 -2.6 27.3 -87.3 -3.437
13:45 1021 30.15 850 25.1 14.5 58.1 31 -2.3 27.8 -87.4 -3.441
13:46 1021 30.15 850 25.1 14.5 58.1 31 -2.6 27.4 -87.4 -3.441
13:47 1021 30.15 850 25.1 14.5 58.1 31 -2.3 27.8 -87.4 -3.441
13:48 1021 30.15 850 25.1 14.5 58.1 31 -2.4 27.6 -87.4 -3.441
13:49 1021 30.15 850 25.1 14.5 58.1 32 -2.1 28.2 -87.4 -3.441
13:50 1021 30.15 850 25.1 14.5 58.1 31 -2.2 28.1 -87.4 -3.441
13:51 1021 30.15 850 25.1 14.5 58.2 31 -2.5 27.5 -87.4 -3.441
13:52 1021 30.15 850 25.1 14.5 58.1 31 -2.3 27.8 -87.4 -3.441
13:53 1021 30.15 850 25.1 14.5 58.1 31 -2.2 28.1 -87.4 -3.441
13:54 1021 30.15 850 25.1 14.5 58.2 32 -1.9 28.5 -87.4 -3.441
13:55 1021 30.15 850 25.1 14.6 58.2 32 -1.8 28.7 -87.4 -3.441
13:56 1021 30.15 850 25.1 14.6 58.2 32 -2 28.3 -87.4 -3.441
13:57 1021 30.15 850 25.1 14.7 58.5 31 -2.3 27.9 -87.4 -3.441
13:58 1021 30.15 850 25.1 14.8 58.7 30 -2.3 27.8 -87.4 -3.441
13:59 1021 30.15 850 25.1 14.8 58.7 31 -2.2 28.1 -87.4 -3.441
14:00 1021 30.15 850 25.1 14.8 58.6 30 -2.4 27.8 -87.4 -3.441
14:01 1021 30.15 850 25.1 14.8 58.6 31 -2.1 28.1 -87.4 -3.441
14:02 1021 30.15 850 25.1 14.8 58.6 31 -2.1 28.2 -87.4 -3.441
14:03 1021 30.15 850 25.1 14.8 58.6 32 -1.8 28.8 -87.4 -3.441
14:04 1021 30.15 850 25.1 14.8 58.6 32 -1.7 28.9 -87.4 -3.441
14:05 1021 30.15 850 25.1 14.8 58.6 32 -1.5 29.2 -87.4 -3.441
14:06 1021 30.15 850 25.1 14.8 58.7 31 -2.1 28.2 -87.4 -3.441
14:07 1021 30.15 850 25.1 14.9 58.7 31 -2.1 28.2 -87.4 -3.441
14:08 1021 30.15 850 25.1 14.9 58.7 31 -2 28.4 -87.4 -3.441
14:09 1021 30.15 850 25.1 14.8 58.7 32 -1.5 29.4 -87.4 -3.441
14:10 1021 30.15 850 25.1 14.9 58.8 32 -1.4 29.5 -87.4 -3.441
14:11 1021 30.15 850 25.1 15.1 59.2 30 -2.1 28.3 -87.4 -3.441
14:12 1021 30.15 850 25.1 15.4 59.8 29 -2.4 27.6 -87.4 -3.441
14:13 1021 30.15 850 25.1 15.7 60.2 29 -2.3 27.8 -87.4 -3.441
14:14 1021 30.15 850 25.1 15.8 60.4 30 -1.5 29.3 -87.4 -3.441
14:15 1021 30.15 850 25.1 15.9 60.5 30 -1.4 29.5 -87.4 -3.441
14:16 1021 30.15 850 25.1 15.9 60.6 31 -1.2 29.9 -87.4 -3.441
14:17 1021 30.15 850 25.1 15.9 60.7 29 -2 28.4 -87.4 -3.441
14:18 1021 30.15 850 25.1 15.9 60.5 29 -1.9 28.5 -87.4 -3.441
14:19 1021 30.15 850 25.1 15.9 60.5 29 -2 28.4 -87.3 -3.437
14:20 1021 30.15 850 25.1 16.1 61 30 -1.2 29.8 -87.3 -3.437
14:21 1021 30.15 850 25.1 16.6 61.8 29 -1.6 29 -87.3 -3.437
14:22 1021 30.15 850 25.1 16.7 62.1 29 -1.3 29.6 -87.3 -3.437
14:23 1021 30.15 850 25.1 16.6 61.9 29 -1.6 29.2 -87.3 -3.437
14:24 1021 30.15 850 25.1 16.5 61.7 28 -2.1 28.1 -87.3 -3.437
14:25 1020 30.12 850 25.1 16.3 61.3 28 -2.1 28.2 -87.2 -3.433
14:26 1021 30.15 850 25.1 16.3 61.3 30 -1.4 29.5 -87.2 -3.433
14:27 1021 30.15 850 25.1 16.6 61.9 30 -1 30.2 -87.2 -3.433
14:28 1021 30.15 850 25.1 16.9 62.5 27 -1.9 28.6 -87.2 -3.433
14:29 1020 30.12 850 25.1 17.1 62.7 28 -1.6 29 -87.2 -3.433
14:30 1021 30.15 850 25.1 17.1 62.8 25 -2.8 27 -87.1 -3.429
14:31 1020 30.12 850 25.1 17.3 63.1 27 -1.6 29.1 -87.1 -3.429
14:32 1020 30.12 850 25.1 17.6 63.6 26 -2.1 28.1 -87.1 -3.429
14:33 1020 30.12 850 25.1 17.6 63.6 28 -1.2 29.9 -87.1 -3.429
14:34 1020 30.12 850 25.1 17.6 63.6 26 -1.8 28.7 -87.1 -3.429
14:35 1021 30.15 850 25.1 17.2 63 28 -1.1 30 -87.1 -3.429
14:36 1021 30.15 850 25.1 16.9 62.4 29 -1.1 30 -87 -3.425
14:37 1021 30.15 850 25.1 16.7 62 28 -1.7 29 -87 -3.425
14:38 1021 30.15 850 25.1 16.4 61.6 28 -2.1 28.2 -87 -3.425
14:39 1021 30.15 850 25.1 16.5 61.7 29 -1.5 29.2 -87 -3.425
14:40 1021 30.15 850 25.1 16.7 62.1 29 -1.1 30 -87 -3.425
14:41 1020 30.12 850 25.1 16.9 62.5 28 -1.7 28.9 -86.9 -3.421
14:42 1020 30.12 850 25.1 17.1 62.8 28 -1.5 29.3 -86.9 -3.421
14:43 1020 30.12 850 25.1 17 62.5 29 -1 30.2 -86.9 -3.421
14:44 1020 30.12 850 25.1 16.7 62 29 -1.3 29.7 -86.9 -3.421
14:45 1020 30.12 850 25.1 16.4 61.6 30 -1.1 30 -86.9 -3.421
14:46 1020 30.12 850 25.1 16.3 61.3 28 -2.1 28.2 -86.9 -3.421
14:47 1020 30.12 850 25.1 16.3 61.3 29 -1.6 29.1 -86.9 -3.421
14:48 1020 30.12 850 25.1 16.3 61.3 29 -1.5 29.3 -86.8 -3.417
14:49 1020 30.12 850 25.1 16.2 61.1 29 -1.6 29.1 -86.8 -3.417
14:50 1020 30.12 850 25.1 16.2 61.1 29 -1.8 28.8 -86.8 -3.417
14:51 1020 30.12 850 25.1 16.1 60.9 29 -2 28.4 -86.8 -3.417
14:52 1020 30.12 849 25.07 15.9 60.7 30 -1.7 29 -86.8 -3.417
14:53 1020 30.12 850 25.1 15.8 60.5 30 -1.7 28.9 -86.8 -3.417
14:54 1020 30.12 849 25.07 15.7 60.2 31 -1.3 29.7 -86.8 -3.417
14:55 1020 30.12 849 25.07 15.6 60 29 -2.1 28.3 -86.8 -3.417
14:56 1020 30.12 849 25.07 15.5 59.9 30 -1.7 28.9 -86.8 -3.417
14:57 1020 30.12 849 25.07 15.5 59.8 31 -1.5 29.2 -86.8 -3.417
14:58 1020 30.12 849 25.07 15.5 59.8 31 -1.5 29.3 -86.7 -3.413
14:59 1020 30.12 849 25.07 15.5 59.8 32 -1 30.2 -86.7 -3.413
15:00 1020 30.12 849 25.07 15.5 59.8 31 -1.7 29 -86.7 -3.413
15:01 1020 30.12 849 25.07 15.5 60 29 -2.1 28.2 -86.7 -3.413
15:02 1020 30.12 849 25.07 15.6 60.1 29 -2.2 28 -86.8 -3.417
15:03 1020 30.12 849 25.07 15.6 60.1 30 -1.7 28.9 -86.8 -3.417
15:04 1020 30.12 849 25.07 15.6 60.1 30 -1.9 28.6 -86.7 -3.413
15:05 1020 30.12 849 25.07 15.6 60.2 30 -1.6 29.1 -86.8 -3.417
15:06 1020 30.12 849 25.07 15.6 60.1 30 -1.7 28.9 -86.8 -3.417
15:07 1020 30.12 849 25.07 15.5 60 29 -2.2 28.1 -86.8 -3.417
15:08 1020 30.12 849 25.07 15.4 59.7 30 -2.2 28 -86.8 -3.417
15:09 1020 30.12 849 25.07 15.3 59.5 32 -1.3 29.6 -86.8 -3.417
15:10 1020 30.12 849 25.07 15.3 59.5 31 -1.6 29.1 -86.8 -3.417
15:11 1020 30.12 849 25.07 15.4 59.6 29 -2.3 27.9 -86.8 -3.417
15:12 1020 30.12 849 25.07 15.3 59.5 30 -2.3 27.9 -86.8 -3.417
15:13 1020 30.12 849 25.07 15.2 59.4 30 -2.2 28 -86.8 -3.417
15:14 1020 30.12 849 25.07 15.1 59.2 30 -2.2 28.1 -86.8 -3.417
15:15 1020 30.12 849 25.07 15.1 59.1 30 -2.3 27.9 -86.9 -3.421
15:16 1020 30.12 849 25.07 15 59 31 -1.8 28.7 -86.9 -3.421
15:17 1020 30.12 849 25.07 15 59 31 -2 28.5 -86.9 -3.421
15:18 1020 30.12 849 25.07 15.1 59.1 30 -2.1 28.2 -86.9 -3.421
15:19 1020 30.12 849 25.07 15.1 59.1 31 -2 28.5 -86.9 -3.421
15:20 1020 30.12 849 25.07 15.1 59.1 32 -1.6 29.2 -86.9 -3.421
15:21 1020 30.12 849 25.07 15.1 59.2 32 -1.5 29.4 -86.9 -3.421
15:22 1020 30.12 849 25.07 15.1 59.1 33 -1.2 29.9 -86.9 -3.421
15:23 1020 30.12 849 25.07 15.1 59.2 33 -1 30.2 -86.9 -3.421
15:24 1020 30.12 849 25.07 15.4 59.6 30 -1.9 28.5 -86.9 -3.421
15:25 1020 30.12 849 25.07 15.7 60.2 32 -1 30.1 -86.9 -3.421
15:26 1020 30.12 849 25.07 16.1 60.9 31 -1.1 30 -86.8 -3.417
15:27 1020 30.12 849 25.07 16.4 61.5 30 -1 30.1 -86.8 -3.417
15:28 1020 30.12 849 25.07 16.7 62.1 30 -0.7 30.8 -86.8 -3.417
15:29 1020 30.12 849 25.07 16.9 62.5 28 -1.4 29.5 -86.8 -3.417
15:30 1020 30.12 849 25.07 17 62.6 26 -2.3 27.9 -86.8 -3.417
15:31 1020 30.12 849 25.07 17 62.5 29 -1.2 29.8 -86.8 -3.417
15:32 1020 30.12 849 25.07 17.1 62.7 30 -0.7 30.7 -86.8 -3.417
15:33 1020 30.12 849 25.07 17.3 63.1 29 -0.9 30.4 -86.8 -3.417
15:34 1020 30.12 849 25.07 17.3 63.2 27 -1.8 28.7 -86.8 -3.417
15:35 1020 30.12 849 25.07 17.3 63.1 28 -1.4 29.5 -86.8 -3.417
15:36 1020 30.12 849 25.07 17.1 62.8 28 -1.2 29.8 -86.8 -3.417
15:37 1020 30.12 849 25.07 17.2 62.9 28 -1.5 29.2 -86.7 -3.413
15:38 1020 30.12 849 25.07 17.3 63.2 27 -1.8 28.7 -86.7 -3.413
15:39 1020 30.12 849 25.07 17.4 63.3 27 -1.6 29.2 -86.7 -3.413
15:40 1020 30.12 849 25.07 17.5 63.4 27 -1.5 29.4 -86.7 -3.413
15:41 1020 30.12 849 25.07 17.3 63.2 28 -1.3 29.7 -86.7 -3.413
15:42 1020 30.12 849 25.07 17.2 62.9 27 -1.8 28.8 -86.7 -3.413
15:43 1020 30.12 849 25.07 17 62.5 27 -1.9 28.6 -86.7 -3.413
15:44 1020 30.12 849 25.07 16.7 62.1 28 -1.6 29.1 -86.6 -3.409
15:45 1020 30.12 849 25.07 16.5 61.7 30 -1.2 29.9 -86.6 -3.409
15:46 1020 30.12 849 25.07 16.5 61.7 29 -1.7 28.9 -86.5 -3.406
15:47 1020 30.12 849 25.07 16.5 61.8 30 -1 30.2 -86.5 -3.406
15:48 1020 30.12 849 25.07 16.7 62.1 29 -1.4 29.6 -86.5 -3.406
15:49 1020 30.12 849 25.07 16.8 62.2 27 -2.3 27.8 -86.5 -3.406
15:50 1020 30.12 849 25.07 16.6 61.9 28 -2 28.3 -86.5 -3.406
15:51 1020 30.12 849 25.07 16.4 61.4 29 -1.5 29.2 -86.5 -3.406
15:52 1020 30.12 849 25.07 16.3 61.3 30 -1.4 29.5 -86.4 -3.402
15:53 1020 30.12 849 25.07 16.4 61.6 28 -2.1 28.3 -86.4 -3.402
15:54 1020 30.12 849 25.07 16.7 62.1 28 -1.8 28.7 -86.4 -3.402
15:55 1020 30.12 849 25.07 17 62.6 27 -2 28.5 -86.4 -3.402
15:56 1020 30.12 849 25.07 17.3 63.2 27 -1.5 29.3 -86.4 -3.402
15:57 1020 30.12 849 25.07 17.6 63.7 26 -2.2 28.1 -86.4 -3.402
15:58 1020 30.12 849 25.07 17.7 63.9 25 -2.2 28 -86.4 -3.402
15:59 1020 30.12 849 25.07 17.7 63.9 25 -2.6 27.3 -86.4 -3.402
16:00 1020 30.12 849 25.07 17.7 63.8 26 -1.7 28.9 -86.4 -3.402
16:01 1020 30.12 849 25.07 17.7 63.9 25 -2.2 28 -86.4 -3.402
16:02 1020 30.12 849 25.07 17.6 63.8 27 -1.5 29.3 -86.3 -3.398
16:03 1020 30.12 849 25.07 17.7 63.9 26 -1.9 28.6 -86.3 -3.398
16:04 1020 30.12 849 25.07 17.8 64.1 26 -1.7 28.9 -86.3 -3.398
16:05 1020 30.12 849 25.07 17.7 63.8 27 -1.6 29 -86.3 -3.398
16:06 1020 30.12 849 25.07 17.4 63.3 25 -2.7 27.1 -86.3 -3.398
16:07 1020 30.12 849 25.07 17.2 62.9 27 -2 28.3 -86.3 -3.398
16:08 1020 30.12 849 25.07 17.2 62.9 26 -2.4 27.7 -86.3 -3.398
16:09 1020 30.12 849 25.07 17.3 63.1 27 -1.9 28.6 -86.3 -3.398
16:10 1020 30.12 849 25.07 17.3 63.1 26 -2.1 28.2 -86.3 -3.398
16:11 1020 30.12 849 25.07 17.3 63.1 26 -2.5 27.6 -86.3 -3.398
16:12 1020 30.12 849 25.07 17.4 63.4 26 -2 28.4 -86.3 -3.398
16:13 1020 30.12 849 25.07 17.7 63.8 25 -2.4 27.8 -86.3 -3.398
16:14 1020 30.12 849 25.07 17.6 63.7 25 -2.4 27.7 -86.3 -3.398
16:15 1020 30.12 849 25.07 17.6 63.6 26 -2 28.4 -86.3 -3.398
16:16 1020 30.12 849 25.07 17.6 63.7 26 -2 28.4 -86.2 -3.394
16:17 1020 30.12 849 25.07 17.8 64 26 -1.9 28.6 -86.2 -3.394
16:18 1020 30.12 849 25.07 17.9 64.1 26 -2 28.4 -86.2 -3.394
16:19 1020 30.12 849 25.07 18 64.3 26 -1.6 29.2 -86.2 -3.394
16:20 1020 30.12 849 25.07 18 64.4 25 -2.2 28 -86.2 -3.394
16:21 1020 30.12 849 25.07 18 64.3 25 -2.3 27.9 -86.1 -3.39
16:22 1020 30.12 849 25.07 18 64.4 25 -2 28.5 -86.1 -3.39
16:23 1020 30.12 849 25.07 18 64.4 24 -2.6 27.3 -86.1 -3.39
16:24 1020 30.12 849 25.07 17.9 64.3 25 -2.3 27.8 -86.1 -3.39
16:25 1020 30.12 849 25.07 17.8 64 26 -1.7 29 -86.1 -3.39
16:26 1020 30.12 849 25.07 17.7 63.9 27 -1.4 29.5 -86.1 -3.39
16:27 1020 30.12 849 25.07 17.9 64.3 26 -1.7 29 -86 -3.386
16:28 1020 30.12 849 25.07 18.1 64.6 27 -1 30.2 -86 -3.386
16:29 1020 30.12 849 25.07 18.1 64.5 25 -2.1 28.3 -86 -3.386
16:30 1020 30.12 849 25.07 18 64.3 25 -2.1 28.2 -86 -3.386
16:31 1020 30.12 849 25.07 17.9 64.1 26 -1.9 28.7 -86 -3.386
16:32 1020 30.12 849 25.07 17.8 64.1 26 -1.9 28.6 -86 -3.386
16:33 1020 30.12 849 25.07 17.8 64 25 -2.1 28.2 -86 -3.386
16:34 1020 30.12 849 25.07 17.8 64 26 -2 28.5 -86 -3.386
16:35 1020 30.12 849 25.07 17.8 64.1 25 -2.5 27.5 -85.9 -3.382
16:36 1020 30.12 849 25.07 17.9 64.1 26 -1.9 28.6 -85.9 -3.382
16:37 1020 30.12 849 25.07 17.9 64.2 25 -2 28.3 -85.9 -3.382
16:38 1020 30.12 849 25.07 17.9 64.2 27 -1.5 29.3 -85.9 -3.382
16:39 1020 30.12 849 25.07 18 64.4 25 -1.9 28.5 -85.8 -3.378
16:40 1020 30.12 849 25.07 18 64.4 25 -2 28.4 -85.8 -3.378
16:41 1020 30.12 849 25.07 17.9 64.3 24 -2.8 26.9 -85.8 -3.378
16:42 1020 30.12 849 25.07 17.8 64 25 -2.4 27.7 -85.8 -3.378
16:43 1020 30.12 849 25.07 17.7 63.8 25 -2.6 27.3 -85.8 -3.378
16:44 1020 30.12 849 25.07 17.7 63.8 25 -2.4 27.7 -85.8 -3.378
16:45 1020 30.12 849 25.07 17.7 63.9 25 -2.6 27.3 -85.8 -3.378
16:46 1020 30.12 849 25.07 17.6 63.7 25 -2.6 27.3 -85.8 -3.378
16:47 1020 30.12 849 25.07 17.6 63.6 26 -1.9 28.6 -85.8 -3.378
16:48 1020 30.12 849 25.07 17.6 63.6 25 -2.5 27.5 -85.8 -3.378
16:49 1020 30.12 849 25.07 17.6 63.6 25 -2.9 26.9 -85.8 -3.378
16:50 1020 30.12 849 25.07 17.5 63.5 25 -2.7 27.2 -85.8 -3.378
16:51 1020 30.12 849 25.07 17.5 63.6 26 -2.1 28.2 -85.8 -3.378
16:52 1020 30.12 849 25.07 17.7 63.8 24 -2.9 26.8 -85.8 -3.378
16:53 1020 30.12 849 25.07 17.7 63.9 26 -2 28.3 -85.8 -3.378
16:54 1020 30.12 849 25.07 17.8 64.1 26 -1.8 28.8 -85.7 -3.374
16:55 1020 30.12 849 25.07 17.9 64.2 24 -2.7 27.1 -85.7 -3.374
16:56 1020 30.12 849 25.07 17.8 64.1 26 -1.9 28.7 -85.7 -3.374
16:57 1020 30.12 849 25.07 17.9 64.2 26 -1.8 28.8 -85.7 -3.374
16:58 1020 30.12 849 25.07 18 64.3 25 -2.4 27.6 -85.7 -3.374
16:59 1020 30.12 849 25.07 17.9 64.3 26 -1.8 28.8 -85.7 -3.374
17:00 1020 30.12 849 25.07 17.9 64.3 25 -2.2 28 -85.7 -3.374
17:01 1020 30.12 849 25.07 17.9 64.1 25 -2.4 27.7 -85.7 -3.374
17:02 1020 30.12 849 25.07 17.8 64.1 25 -2.4 27.7 -85.7 -3.374
17:03 1020 30.12 849 25.07 17.8 64 25 -2.6 27.4 -85.7 -3.374
17:04 1020 30.12 849 25.07 17.7 63.9 25 -2.6 27.2 -85.7 -3.374
17:05 1020 30.12 849 25.07 17.7 63.9 25 -2.6 27.4 -85.7 -3.374
17:06 1020 30.12 849 25.07 17.7 63.9 26 -1.7 28.9 -85.7 -3.374
17:07 1020 30.12 849 25.07 17.8 64.1 25 -2.3 27.9 -85.7 -3.374
17:08 1020 30.12 849 25.07 17.8 64.1 25 -2.4 27.6 -85.7 -3.374
17:09 1020 30.12 849 25.07 17.8 64 25 -2.5 27.5 -85.7 -3.374
17:10 1020 30.12 849 25.07 17.7 63.9 26 -1.7 29 -85.7 -3.374
17:11 1020 30.12 849 25.07 17.7 63.8 26 -2 28.4 -85.7 -3.374
17:12 1020 30.12 849 25.07 17.4 63.4 26 -2.3 27.8 -85.7 -3.374
17:13 1020 30.12 849 25.07 17.2 63 27 -2 28.4 -85.7 -3.374
17:14 1020 30.12 849 25.07 17 62.7 28 -1.5 29.4 -85.7 -3.374
17:15 1020 30.12 849 25.07 16.9 62.4 28 -1.6 29.2 -85.7 -3.374
17:16 1020 30.12 849 25.07 16.8 62.2 29 -1.3 29.6 -85.7 -3.374
17:17 1020 30.12 849 25.07 16.6 62 29 -1.2 29.8 -85.7 -3.374
17:18 1020 30.12 849 25.07 16.6 61.8 29 -1.4 29.4 -85.7 -3.374
17:19 1020 30.12 849 25.07 16.5 61.8 29 -1.3 29.7 -85.7 -3.374
17:20 1020 30.12 849 25.07 16.5 61.7 28 -1.9 28.5 -85.7 -3.374
17:21 1020 30.12 849 25.07 16.4 61.5 29 -1.4 29.6 -85.7 -3.374
17:22 1020 30.12 849 25.07 16.2 61.2 31 -0.9 30.5 -85.7 -3.374
17:23 1020 30.12 849 25.07 16.1 61.1 31 -0.9 30.3 -85.6 -3.37
17:24 1020 30.12 849 25.07 16.1 60.9 32 -0.7 30.7 -85.6 -3.37
17:25 1020 30.12 849 25.07 15.9 60.7 31 -1 30.2 -85.6 -3.37
17:26 1020 30.12 849 25.07 15.8 60.5 32 -0.8 30.5 -85.6 -3.37
17:27 1020 30.12 849 25.07 15.8 60.4 31 -1.1 30 -85.7 -3.374
17:28 1020 30.12 849 25.07 15.8 60.4 32 -0.7 30.8 -85.6 -3.37
17:29 1020 30.12 849 25.07 15.7 60.2 31 -1.3 29.6 -85.7 -3.374
17:30 1020 30.12 849 25.07 15.6 60.1 31 -1.3 29.7 -85.7 -3.374
17:31 1020 30.12 849 25.07 15.5 59.9 30 -1.9 28.6 -85.7 -3.374
17:32 1020 30.12 849 25.07 15.5 60 32 -0.8 30.5 -85.7 -3.374
17:33 1020 30.12 849 25.07 15.6 60.1 32 -0.9 30.4 -85.7 -3.374
17:34 1020 30.12 849 25.07 15.6 60 32 -1 30.2 -85.7 -3.374
17:35 1020 30.12 849 25.07 15.5 59.8 33 -0.8 30.5 -85.7 -3.374
17:36 1020 30.12 849 25.07 15.4 59.7 33 -0.9 30.3 -85.7 -3.374
17:37 1020 30.12 849 25.07 15.3 59.5 32 -1.3 29.6 -85.8 -3.378
17:38 1020 30.12 849 25.07 15.2 59.3 33 -0.8 30.5 -85.8 -3.378
17:39 1020 30.12 849 25.07 15.1 59.2 34 -0.5 31.2 -85.8 -3.378
17:40 1020 30.12 849 25.07 15 59.1 33 -0.9 30.4 -85.8 -3.378
17:41 1020 30.12 849 25.07 15 59 33 -0.9 30.4 -85.8 -3.378
17:42 1020 30.12 849 25.07 14.9 58.9 34 -0.9 30.4 -85.8 -3.378
17:43 1020 30.12 849 25.07 14.8 58.7 35 -0.6 31 -85.9 -3.382
17:44 1020 30.12 849 25.07 14.8 58.6 35 -0.6 31 -85.9 -3.382
17:45 1020 30.12 849 25.07 14.7 58.4 35 -0.4 31.3 -85.9 -3.382
17:46 1020 30.12 849 25.07 14.6 58.3 34 -1 30.3 -85.9 -3.382
17:47 1020 30.12 849 25.07 14.6 58.2 36 -0.4 31.4 -86 -3.386
17:48 1020 30.12 849 25.07 14.5 58.1 35 -0.5 31.1 -86 -3.386
17:49 1020 30.12 849 25.07 14.5 58.1 35 -0.5 31.1 -86 -3.386
17:50 1019 30.09 849 25.07 14.6 58.2 36 -0.4 31.2 -86 -3.386
17:51 1019 30.09 849 25.07 14.6 58.3 36 -0.2 31.6 -86.1 -3.39
17:52 1019 30.09 849 25.07 14.7 58.4 36 -0.1 31.9 -86.1 -3.39
17:53 1019 30.09 849 25.07 14.7 58.4 36 -0.2 31.6 -86.1 -3.39
17:54 1019 30.09 849 25.07 14.8 58.6 35 -0.6 30.9 -86.1 -3.39
17:55 1019 30.09 849 25.07 14.8 58.7 35 -0.5 31.2 -86.1 -3.39
17:56 1019 30.09 849 25.07 14.9 58.7 35 -0.6 31 -86.1 -3.39
17:57 1019 30.09 849 25.07 14.9 58.8 34 -0.6 30.9 -86.2 -3.394
17:58 1019 30.09 849 25.07 14.9 58.8 35 -0.3 31.4 -86.2 -3.394
17:59 1019 30.09 849 25.07 14.8 58.7 36 -0.2 31.7 -86.2 -3.394
18:00 1019 30.09 849 25.07 14.7 58.5 35 -0.6 31 -86.2 -3.394
18:01 1019 30.09 849 25.07 14.6 58.4 37 0.4 32.7 -86.3 -3.398
18:02 1019 30.09 849 25.07 14.5 58.1 36 -0.4 31.3 -86.3 -3.398
18:03 1019 30.09 849 25.07 14.4 58 37 0.1 32.2 -86.3 -3.398
18:04 1019 30.09 849 25.07 14.3 57.8 37 -0.3 31.5 -86.3 -3.398
18:05 1019 30.09 849 25.07 14.2 57.6 37 -0.2 31.7 -86.3 -3.398
18:06 1019 30.09 849 25.07 14.1 57.5 38 0.2 32.3 -86.3 -3.398
18:07 1019 30.09 849 25.07 14.1 57.3 38 0.2 32.4 -86.3 -3.398
18:08 1019 30.09 849 25.07 14 57.1 38 -0.1 31.8 -86.3 -3.398
18:09 1019 30.09 849 25.07 13.9 56.9 39 0.3 32.5 -86.3 -3.398
18:10 1019 30.09 849 25.07 13.8 56.8 38 -0.1 31.8 -86.4 -3.402
18:11 1019 30.09 849 25.07 13.6 56.5 38 -0.2 31.6 -86.4 -3.402
18:12 1019 30.09 849 25.07 13.6 56.5 39 -0.1 31.9 -86.4 -3.402
18:13 1019 30.09 849 25.07 13.5 56.3 38 -0.4 31.3 -86.4 -3.402
18:14 1019 30.09 849 25.07 13.5 56.3 38 -0.4 31.3 -86.5 -3.406
18:15 1019 30.09 849 25.07 13.5 56.3 38 -0.6 30.9 -86.5 -3.406
18:16 1019 30.09 849 25.07 13.5 56.3 37 -0.8 30.5 -86.5 -3.406
18:17 1019 30.09 849 25.07 13.5 56.4 37 -0.8 30.5 -86.5 -3.406
18:18 1019 30.09 849 25.07 13.5 56.4 37 -0.9 30.4 -86.5 -3.406
18:19 1019 30.09 849 25.07 13.6 56.4 37 -0.8 30.5 -86.6 -3.409
18:20 1019 30.09 849 25.07 13.6 56.5 36 -1 30.1 -86.6 -3.409
18:21 1019 30.09 849 25.07 13.6 56.4 37 -0.7 30.7 -86.6 -3.409
18:22 1019 30.09 849 25.07 13.5 56.4 38 -0.4 31.3 -86.6 -3.409
18:23 1019 30.09 849 25.07 13.4 56.2 39 -0.4 31.4 -86.6 -3.409
18:24 1019 30.09 849 25.07 13.3 56 39 -0.1 31.8 -86.6 -3.409
18:25 1019 30.09 849 25.07 13.2 55.8 39 -0.3 31.4 -86.7 -3.413
18:26 1019 30.09 849 25.07 13.2 55.7 38 -0.9 30.4 -86.7 -3.413
18:27 1019 30.09 849 25.07 13.3 55.9 38 -0.6 30.9 -86.7 -3.413
18:28 1019 30.09 849 25.07 13.3 55.9 38 -0.8 30.5 -86.7 -3.413
18:29 1019 30.09 849 25.07 13.3 55.9 37 -0.9 30.4 -86.7 -3.413
18:30 1020 30.12 849 25.07 13.2 55.8 37 -1 30.3 -86.7 -3.413
18:31 1020 30.12 849 25.07 13.3 55.9 37 -1 30.1 -86.8 -3.417
18:32 1020 30.12 849 25.07 13.3 55.9 37 -1.1 30.1 -86.8 -3.417
18:33 1020 30.12 849 25.07 13.4 56.1 39 -0.1 31.8 -86.8 -3.417
18:34 1020 30.12 849 25.07 13.4 56 38 -0.4 31.2 -86.9 -3.421
18:35 1020 30.12 849 25.07 13.3 55.9 38 -0.6 30.8 -86.9 -3.421
18:36 1020 30.12 849 25.07 13.3 55.9 39 -0.2 31.6 -86.9 -3.421
18:37 1020 30.12 849 25.07 13.2 55.8 40 -0.2 31.7 -86.9 -3.421
18:38 1020 30.12 849 25.07 13.1 55.6 40 -0.2 31.6 -86.9 -3.421
18:39 1020 30.12 849 25.07 13 55.4 41 0.1 32.2 -86.9 -3.421
18:40 1020 30.12 849 25.07 12.8 55.1 42 0.4 32.7 -87 -3.425
18:41 1020 30.12 849 25.07 12.6 54.6 43 0.4 32.8 -87 -3.425
18:42 1020 30.12 849 25.07 12.4 54.3 43 0.2 32.3 -87 -3.425
18:43 1020 30.12 849 25.07 12.4 54.2 43 0.2 32.3 -87 -3.425
18:44 1020 30.12 849 25.07 12.3 54.1 43 0.1 32.2 -87 -3.425
18:45 1020 30.12 849 25.07 12.3 54.1 43 0.2 32.3 -87.1 -3.429
18:46 1020 30.12 849 25.07 12.3 54.1 42 -0.1 31.9 -87.1 -3.429
18:47 1020 30.12 849 25.07 12.3 54.1 42 -0.1 31.9 -87.1 -3.429
18:48 1020 30.12 849 25.07 12.3 54.2 42 -0.1 31.8 -87.1 -3.429
18:49 1020 30.12 849 25.07 12.4 54.2 42 0 32 -87.1 -3.429
18:50 1020 30.12 849 25.07 12.3 54.2 43 0 32.1 -87.1 -3.429
18:51 1020 30.12 849 25.07 12.3 54.2 42 -0 31.9 -87.2 -3.433
18:52 1020 30.12 849 25.07 12.3 54.1 42 -0 31.9 -87.2 -3.433
18:53 1020 30.12 849 25.07 12.2 54 43 0 32.1 -87.2 -3.433
18:54 1020 30.12 849 25.07 12.2 54 43 0 32 -87.2 -3.433
18:55 1020 30.12 849 25.07 12.2 54 43 -0 32 -87.2 -3.433
18:56 1020 30.12 849 25.07 12.2 53.9 43 -0 32 -87.2 -3.433
18:57 1020 30.12 849 25.07 12.2 53.9 43 -0.1 31.8 -87.3 -3.437
18:58 1020 30.12 849 25.07 12.2 53.9 42 -0.3 31.5 -87.3 -3.437
18:59 1020 30.12 849 25.07 12.2 53.9 43 -0 31.9 -87.3 -3.437
19:00 1020 30.12 849 25.07 12.3 54.1 41 -0.4 31.2 -87.3 -3.437
19:01 1020 30.12 849 25.07 12.3 54.1 43 0.2 32.3 -87.3 -3.437
19:02 1020 30.12 849 25.07 12.2 53.9 44 0.3 32.5 -87.4 -3.441
19:03 1020 30.12 849 25.07 12.1 53.7 44 0.1 32.2 -87.4 -3.441
19:04 1020 30.12 849 25.07 12 53.7 43 0 32.1 -87.4 -3.441
19:05 1020 30.12 849 25.07 12 53.7 44 0.1 32.2 -87.4 -3.441
19:06 1020 30.12 849 25.07 12 53.6 44 0.3 32.5 -87.4 -3.441
19:07 1020 30.12 849 25.07 12 53.7 44 0.2 32.4 -87.4 -3.441
19:08 1020 30.12 849 25.07 11.9 53.4 43 -0.1 31.7 -87.4 -3.441
19:09 1020 30.12 849 25.07 11.9 53.5 43 -0.3 31.4 -87.5 -3.445
19:10 1020 30.12 849 25.07 12 53.6 44 0.1 32.1 -87.5 -3.445
19:11 1020 30.12 849 25.07 12 53.5 45 0.5 32.9 -87.5 -3.445
19:12 1020 30.12 849 25.07 11.8 53.2 47 0.8 33.4 -87.5 -3.445
19:13 1020 30.12 849 25.07 11.5 52.8 46 0.5 32.9 -87.5 -3.445
19:14 1020 30.12 849 25.07 11.4 52.5 49 1 33.8 -87.5 -3.445
19:15 1020 30.12 849 25.07 11.1 52 50 1.1 34 -87.5 -3.445
19:16 1020 30.12 849 25.07 10.9 51.5 51 1.3 34.3 -87.5 -3.445
19:17 1020 30.12 849 25.07 10.6 51 52 1.2 34.1 -87.6 -3.449
19:18 1020 30.12 849 25.07 10.4 50.7 54 1.5 34.7 -87.6 -3.449
19:19 1020 30.12 849 25.07 10.2 50.3 54 1.2 34.2 -87.6 -3.449
19:20 1020 30.12 849 25.07 10.1 50.1 54 1.3 34.4 -87.6 -3.449
19:21 1020 30.12 849 25.07 9.9 49.9 55 1.3 34.3 -87.6 -3.449
19:22 1020 30.12 849 25.07 9.9 49.7 55 1.2 34.2 -87.6 -3.449
19:23 1020 30.12 849 25.07 9.8 49.7 55 1.3 34.3 -87.6 -3.449
19:24 1020 30.12 849 25.07 9.8 49.7 55 1.3 34.4 -87.6 -3.449
19:25 1020 30.12 849 25.07 9.8 49.6 55 1.3 34.3 -87.6 -3.449
19:26 1020 30.12 849 25.07 9.7 49.4 55 1.1 34 -87.6 -3.449
19:27 1020 30.12 849 25.07 9.6 49.3 55 1 33.8 -87.7 -3.453
19:28 1020 30.12 849 25.07 9.7 49.4 55 1 33.8 -87.7 -3.453
19:29 1020 30.12 849 25.07 9.8 49.6 50 -0.1 31.8 -87.7 -3.453
19:30 1020 30.12 849 25.07 10 50 47 -0.7 30.7 -87.7 -3.453
19:31 1020 30.12 849 25.07 10.5 50.9 47 -0.4 31.3 -87.7 -3.453
19:32 1020 30.12 849 25.07 10.8 51.4 46 -0.2 31.6 -87.8 -3.457
19:33 1020 30.12 849 25.07 11 51.7 47 0.1 32.2 -87.8 -3.457
19:34 1020 30.12 849 25.07 10.9 51.7 48 0.3 32.6 -87.8 -3.457
19:35 1020 30.12 849 25.07 10.8 51.5 47 0.1 32.1 -87.8 -3.457
19:36 1020 30.12 849 25.07 10.8 51.4 47 0.1 32.2 -87.8 -3.457
19:37 1020 30.12 849 25.07 10.8 51.4 47 0 32 -87.8 -3.457
19:38 1020 30.12 849 25.07 10.8 51.4 46 -0.3 31.5 -87.8 -3.457
19:39 1020 30.12 849 25.07 10.8 51.5 47 -0.1 31.9 -87.9 -3.461
19:40 1020 30.12 849 25.07 10.9 51.6 47 -0.1 31.9 -87.9 -3.461
19:41 1020 30.12 849 25.07 10.8 51.5 47 0.1 32.1 -87.9 -3.461
19:42 1020 30.12 849 25.07 10.8 51.4 48 0.3 32.5 -87.9 -3.461
19:43 1020 30.12 849 25.07 10.7 51.2 49 0.4 32.7 -87.9 -3.461
19:44 1020 30.12 849 25.07 10.5 50.9 50 0.4 32.8 -87.9 -3.461
19:45 1020 30.12 849 25.07 10.3 50.5 50 0.3 32.6 -87.9 -3.461
19:46 1020 30.12 849 25.07 10.2 50.4 51 0.6 33 -88 -3.465
19:47 1020 30.12 849 25.07 10.1 50.1 51 0.5 32.9 -88 -3.465
19:48 1020 30.12 849 25.07 9.9 49.9 51 0.2 32.4 -88 -3.465
19:49 1020 30.12 849 25.07 9.8 49.7 52 0.4 32.7 -88 -3.465
19:50 1020 30.12 849 25.07 9.8 49.6 51 0.1 32.3 -88 -3.465
19:51 1020 30.12 849 25.07 9.7 49.5 52 0.4 32.7 -88 -3.465
19:52 1020 30.12 849 25.07 9.7 49.5 51 0.2 32.3 -88 -3.465
19:53 1020 30.12 849 25.07 9.7 49.5 51 0.2 32.4 -88 -3.465
19:54 1020 30.12 849 25.07 9.7 49.5 53 0.6 33 -88.1 -3.469
19:55 1020 30.12 849 25.07 9.7 49.4 54 0.8 33.5 -88.1 -3.469
19:56 1020 30.12 849 25.07 9.5 49 56 1.2 34.1 -88.1 -3.469
19:57 1020 30.12 849 25.07 9.1 48.4 56 0.9 33.6 -88.1 -3.469
19:58 1020 30.12 849 25.07 8.9 48.1 56 0.6 33 -88.1 -3.469
19:59 1020 30.12 849 25.07 9 48.1 53 0 32.1 -88.1 -3.469
20:00 1020 30.12 849 25.07 9.1 48.3 55 0.5 32.9 -88.1 -3.469
20:01 1020 30.12 849 25.07 9.1 48.5 55 0.6 33.1 -88.1 -3.469
20:02 1020 30.12 849 25.07 9 48.2 54 0.1 32.2 -88.2 -3.472
20:03 1020 30.12 849 25.07 9.1 48.3 53 0.1 32.2 -88.2 -3.472
20:04 1020 30.12 849 25.07 9.2 48.5 53 0.2 32.4 -88.2 -3.472
20:05 1020 30.12 849 25.07 9.2 48.6 54 0.5 32.9 -88.2 -3.472
20:06 1020 30.12 849 25.07 9.1 48.4 53 0.1 32.2 -88.2 -3.472
20:07 1020 30.12 849 25.07 9.1 48.4 54 0.3 32.6 -88.2 -3.472
20:08 1020 30.12 849 25.07 9.1 48.3 55 0.6 33.1 -88.2 -3.472
20:09 1020 30.12 849 25.07 8.9 48.1 55 0.4 32.8 -88.3 -3.476
20:10 1020 30.12 849 25.07 8.8 47.8 56 0.4 32.8 -88.3 -3.476
20:11 1020 30.12 849 25.07 8.7 47.7 56 0.5 32.8 -88.3 -3.476
20:12 1020 30.12 849 25.07 8.7 47.6 57 0.6 33.2 -88.3 -3.476
20:13 1020 30.12 849 25.07 8.5 47.4 58 0.7 33.3 -88.3 -3.476
20:14 1020 30.12 849 25.07 8.4 47.2 58 0.7 33.3 -88.3 -3.476
20:15 1020 30.12 849 25.07 8.3 46.9 58 0.6 33.1 -88.3 -3.476
20:16 1020 30.12 849 25.07 8.3 46.9 58 0.6 33.2 -88.4 -3.48
20:17 1020 30.12 849 25.07 8.2 46.7 59 0.7 33.2 -88.4 -3.48
20:18 1020 30.12 849 25.07 8 46.4 59 0.5 32.8 -88.4 -3.48
20:19 1020 30.12 849 25.07 8 46.4 58 0.3 32.6 -88.4 -3.48
20:20 1020 30.12 849 25.07 8 46.4 58 0.3 32.6 -88.4 -3.48
20:21 1020 30.12 849 25.07 8 46.4 58 0.3 32.6 -88.4 -3.48
20:22 1020 30.12 849 25.07 8 46.3 58 0.3 32.6 -88.4 -3.48
20:23 1020 30.12 849 25.07 7.9 46.3 58 0.3 32.5 -88.4 -3.48
20:24 1020 30.12 849 25.07 7.9 46.2 58 0.2 32.4 -88.4 -3.48
20:25 1020 30.12 849 25.07 7.9 46.2 59 0.3 32.6 -88.4 -3.48
20:26 1020 30.12 849 25.07 7.9 46.1 59 0.4 32.7 -88.4 -3.48
20:27 1020 30.12 849 25.07 7.8 46 59 0.3 32.5 -88.5 -3.484
20:28 1020 30.12 850 25.1 7.8 46.1 59 0.2 32.4 -88.5 -3.484
20:29 1020 30.12 850 25.1 7.8 46.1 59 0.3 32.6 -88.5 -3.484
20:30 1020 30.12 850 25.1 7.8 46.1 59 0.4 32.8 -88.5 -3.484
20:31 1020 30.12 849 25.07 7.8 46 60 0.4 32.7 -88.5 -3.484
20:32 1020 30.12 849 25.07 7.7 45.9 60 0.5 32.8 -88.5 -3.484
20:33 1020 30.12 850 25.1 7.6 45.8 61 0.7 33.2 -88.5 -3.484
20:34 1020 30.12 850 25.1 7.6 45.6 62 0.7 33.3 -88.6 -3.488
20:35 1020 30.12 850 25.1 7.4 45.4 63 0.8 33.5 -88.6 -3.488
20:36 1020 30.12 850 25.1 7.3 45.2 64 0.9 33.6 -88.6 -3.488
20:37 1020 30.12 850 25.1 7.2 44.9 64 0.9 33.6 -88.6 -3.488
20:38 1020 30.12 850 25.1 7.1 44.8 64 0.9 33.6 -88.6 -3.488
20:39 1020 30.12 850 25.1 7 44.6 65 0.8 33.5 -88.6 -3.488
20:40 1020 30.12 850 25.1 6.9 44.4 65 0.9 33.5 -88.6 -3.488
20:41 1020 30.12 850 25.1 6.8 44.3 66 0.9 33.6 -88.6 -3.488
20:42 1020 30.12 850 25.1 6.7 44.1 67 1 33.8 -88.6 -3.488
20:43 1020 30.12 850 25.1 6.6 43.8 67 1 33.8 -88.6 -3.488
20:44 1020 30.12 850 25.1 6.4 43.6 68 0.9 33.6 -88.6 -3.488
20:45 1020 30.12 850 25.1 6.3 43.4 68 0.9 33.6 -88.6 -3.488
20:46 1020 30.12 850 25.1 6.3 43.3 68 0.8 33.4 -88.6 -3.488
20:47 1020 30.12 850 25.1 6.2 43.1 68 0.7 33.3 -88.6 -3.488
20:48 1020 30.12 849 25.07 6.2 43.1 67 0.5 32.9 -88.6 -3.488
20:49 1020 30.12 850 25.1 6.2 43.2 67 0.6 33.1 -88.6 -3.488
20:50 1020 30.12 850 25.1 6.3 43.3 67 0.7 33.2 -88.7 -3.492
20:51 1020 30.12 850 25.1 6.3 43.3 68 0.8 33.4 -88.7 -3.492
20:52 1020 30.12 850 25.1 6.2 43.2 68 0.7 33.3 -88.7 -3.492
20:53 1020 30.12 850 25.1 6.2 43.1 68 0.8 33.4 -88.7 -3.492
20:54 1020 30.12 850 25.1 6.1 43 69 0.7 33.3 -88.7 -3.492
20:55 1020 30.12 850 25.1 6 42.9 68 0.7 33.2 -88.7 -3.492
20:56 1020 30.12 850 25.1 6 42.8 68 0.6 33 -88.7 -3.492
20:57 1020 30.12 850 25.1 6 42.9 67 0.5 32.9 -88.7 -3.492
20:58 1020 30.12 850 25.1 6.1 43 67 0.5 32.8 -88.7 -3.492
20:59 1020 30.12 850 25.1 6.2 43.2 67 0.5 33 -88.7 -3.492
21:00 1020 30.12 850 25.1 6.2 43.2 67 0.6 33.1 -88.7 -3.492
21:01 1020 30.12 850 25.1 6.2 43.2 68 0.7 33.3 -88.8 -3.496
21:02 1020 30.12 850 25.1 6.1 43 68 0.6 33.1 -88.8 -3.496
21:03 1020 30.12 850 25.1 6.1 43 68 0.6 33.1 -88.8 -3.496
21:04 1020 30.12 850 25.1 6 42.9 68 0.6 33 -88.8 -3.496
21:05 1020 30.12 850 25.1 6 42.9 67 0.5 32.8 -88.8 -3.496
21:06 1020 30.12 850 25.1 6.1 42.9 67 0.5 32.9 -88.8 -3.496
21:07 1020 30.12 850 25.1 6.1 43 67 0.5 32.9 -88.8 -3.496
21:08 1020 30.12 850 25.1 6.1 43 67 0.5 32.9 -88.8 -3.496
21:09 1020 30.12 850 25.1 6.2 43.1 67 0.5 32.9 -88.8 -3.496
21:10 1020 30.12 850 25.1 6.1 43.1 67 0.5 32.9 -88.8 -3.496
21:11 1020 30.12 850 25.1 6.2 43.1 67 0.6 33 -88.8 -3.496
21:12 1020 30.12 850 25.1 6.1 43 67 0.5 33 -88.9 -3.5
21:13 1020 30.12 850 25.1 6.1 42.9 67 0.5 32.9 -88.9 -3.5
21:14 1020 30.12 850 25.1 6.1 42.9 67 0.5 32.9 -88.9 -3.5
21:15 1020 30.12 850 25.1 6.1 42.9 67 0.5 32.8 -88.9 -3.5
21:16 1020 30.12 850 25.1 6 42.9 67 0.4 32.7 -88.9 -3.5
21:17 1020 30.12 850 25.1 6.1 42.9 67 0.4 32.7 -88.9 -3.5
21:18 1020 30.12 850 25.1 6.1 43 66 0.3 32.6 -88.9 -3.5
21:19 1020 30.12 850 25.1 6.2 43.1 66 0.3 32.5 -88.9 -3.5
21:20 1020 30.12 850 25.1 6.2 43.2 66 0.4 32.7 -88.9 -3.5
21:21 1020 30.12 850 25.1 6.2 43.2 66 0.3 32.6 -88.9 -3.5
21:22 1020 30.12 850 25.1 6.3 43.3 66 0.3 32.6 -88.9 -3.5
21:23 1020 30.12 850 25.1 6.3 43.3 66 0.4 32.7 -89 -3.504
21:24 1020 30.12 850 25.1 6.2 43.2 66 0.3 32.5 -89 -3.504
21:25 1020 30.12 850 25.1 6.3 43.3 65 0.3 32.5 -89 -3.504
21:26 1020 30.12 850 25.1 6.3 43.4 65 0.3 32.5 -89 -3.504
21:27 1020 30.12 850 25.1 6.4 43.5 65 0.3 32.5 -89 -3.504
21:28 1020 30.12 850 25.1 6.5 43.6 65 0.4 32.7 -89 -3.504
21:29 1020 30.12 850 25.1 6.5 43.6 65 0.3 32.6 -89.1 -3.508
21:30 1020 30.12 850 25.1 6.4 43.6 65 0.3 32.5 -89.1 -3.508
21:31 1020 30.12 850 25.1 6.4 43.6 65 0.4 32.7 -89.1 -3.508
21:32 1020 30.12 850 25.1 6.4 43.5 65 0.4 32.7 -89.1 -3.508
21:33 1020 30.12 850 25.1 6.4 43.4 65 0.4 32.7 -89.1 -3.508
21:34 1020 30.12 850 25.1 6.3 43.3 66 0.4 32.6 -89.1 -3.508
21:35 1020 30.12 850 25.1 6.3 43.3 66 0.3 32.6 -89.1 -3.508
21:36 1020 30.12 850 25.1 6.3 43.3 65 0.3 32.5 -89.1 -3.508
21:37 1020 30.12 850 25.1 6.3 43.3 65 0.3 32.5 -89.1 -3.508
21:38 1020 30.12 850 25.1 6.3 43.4 65 0.3 32.6 -89.1 -3.508
21:39 1020 30.12 850 25.1 6.3 43.3 66 0.3 32.6 -89.1 -3.508
21:40 1020 30.12 850 25.1 6.2 43.2 66 0.3 32.5 -89.1 -3.508
21:41 1020 30.12 850 25.1 6.2 43.1 66 0.2 32.4 -89.2 -3.512
21:42 1020 30.12 850 25.1 6.2 43.1 66 0.2 32.4 -89.2 -3.512
21:43 1020 30.12 850 25.1 6.1 43 66 0.2 32.4 -89.2 -3.512
21:44 1020 30.12 850 25.1 6 42.8 66 0.2 32.3 -89.2 -3.512
21:45 1020 30.12 850 25.1 5.9 42.6 66 0.1 32.2 -89.2 -3.512
21:46 1020 30.12 850 25.1 5.8 42.5 67 0.1 32.2 -89.2 -3.512
21:47 1020 30.12 849 25.07 5.8 42.4 67 0.1 32.3 -89.2 -3.512
21:48 1020 30.12 850 25.1 5.6 42.2 68 0.2 32.3 -89.2 -3.512
21:49 1020 30.12 849 25.07 5.5 41.9 68 0.2 32.3 -89.2 -3.512
21:50 1020 30.12 849 25.07 5.4 41.7 69 0.2 32.4 -89.2 -3.512
21:51 1020 30.12 849 25.07 5.2 41.3 71 0.3 32.5 -89.2 -3.512
21:52 1020 30.12 849 25.07 4.8 40.7 73 0.3 32.6 -89.2 -3.512
21:53 1020 30.12 849 25.07 4.3 39.7 76 0.4 32.6 -89.2 -3.512
21:54 1020 30.12 849 25.07 4.1 39.3 77 0.4 32.6 -89.2 -3.512
21:55 1020 30.12 849 25.07 4.1 39.4 76 0.3 32.6 -89.2 -3.512
21:56 1020 30.12 849 25.07 4.2 39.6 76 0.3 32.6 -89.2 -3.512
21:57 1020 30.12 849 25.07 4.2 39.6 76 0.4 32.7 -89.2 -3.512
21:58 1020 30.12 849 25.07 4.2 39.6 77 0.6 33 -89.2 -3.512
21:59 1020 30.12 849 25.07 4.2 39.5 77 0.5 33 -89.2 -3.512
22:00 1020 30.12 849 25.07 4.2 39.5 77 0.6 33.1 -89.2 -3.512
22:01 1020 30.12 849 25.07 4.1 39.4 78 0.6 33.1 -89.2 -3.512
22:02 1020 30.12 849 25.07 4 39.3 78 0.6 33 -89.2 -3.512
22:03 1020 30.12 849 25.07 4 39.2 77 0.4 32.8 -89.2 -3.512
22:04 1020 30.12 849 25.07 4 39.2 77 0.4 32.7 -89.1 -3.508
22:05 1020 30.12 849 25.07 4 39.3 77 0.4 32.8 -89.1 -3.508
22:06 1020 30.12 849 25.07 4 39.2 78 0.5 32.8 -89.1 -3.508
22:07 1020 30.12 849 25.07 4 39.2 78 0.5 32.9 -89.1 -3.508
22:08 1020 30.12 849 25.07 4 39.2 78 0.5 32.9 -89.1 -3.508
22:09 1020 30.12 849 25.07 4.1 39.3 78 0.5 32.9 -89.1 -3.508
22:10 1020 30.12 849 25.07 4 39.2 78 0.5 32.9 -89.1 -3.508
22:11 1020 30.12 849 25.07 4 39.2 78 0.5 32.9 -89.1 -3.508
22:12 1020 30.12 849 25.07 4 39.3 78 0.5 32.9 -89.1 -3.508
22:13 1020 30.12 849 25.07 4.1 39.3 77 0.5 32.8 -89.1 -3.508
22:14 1020 30.12 849 25.07 4.1 39.3 78 0.5 32.9 -89.1 -3.508
22:15 1020 30.12 849 25.07 4.1 39.3 78 0.5 32.9 -89.1 -3.508
22:16 1020 30.12 849 25.07 4 39.3 78 0.5 33 -89.1 -3.508
22:17 1020 30.12 849 25.07 4 39.3 78 0.6 33 -89.1 -3.508
22:18 1020 30.12 849 25.07 4 39.2 78 0.6 33 -89.1 -3.508
22:19 1020 30.12 849 25.07 4 39.2 79 0.6 33.1 -89.1 -3.508
22:20 1020 30.12 849 25.07 3.9 39.1 79 0.6 33.1 -89.2 -3.512
22:21 1020 30.12 849 25.07 3.8 38.9 79 0.6 33.1 -89.2 -3.512
22:22 1020 30.12 849 25.07 3.8 38.9 79 0.6 33 -89.2 -3.512
22:23 1020 30.12 849 25.07 3.8 38.9 79 0.6 33.1 -89.2 -3.512
22:24 1020 30.12 849 25.07 3.8 38.8 79 0.6 33 -89.2 -3.512
22:25 1020 30.12 849 25.07 3.8 38.9 79 0.5 32.9 -89.2 -3.512
22:26 1020 30.12 849 25.07 3.8 38.9 79 0.5 32.9 -89.2 -3.512
22:27 1020 30.12 849 25.07 3.8 38.8 79 0.5 32.9 -89.2 -3.512
22:28 1020 30.12 849 25.07 3.7 38.7 79 0.5 32.9 -89.2 -3.512
22:29 1020 30.12 849 25.07 3.7 38.7 79 0.4 32.8 -89.2 -3.512
22:30 1020 30.12 849 25.07 3.7 38.7 79 0.4 32.6 -89.2 -3.512
22:31 1020 30.12 849 25.07 3.8 38.8 78 0.3 32.6 -89.2 -3.512
22:32 1020 30.12 849 25.07 3.8 38.8 78 0.3 32.5 -89.2 -3.512
22:33 1020 30.12 849 25.07 3.8 38.9 78 0.4 32.6 -89.2 -3.512
22:34 1020 30.12 849 25.07 3.8 38.9 78 0.3 32.6 -89.2 -3.512
22:35 1020 30.12 849 25.07 3.8 38.9 78 0.3 32.6 -89.2 -3.512
22:36 1020 30.12 849 25.07 3.8 38.9 78 0.4 32.7 -89.2 -3.512
22:37 1020 30.12 849 25.07 3.8 38.9 79 0.4 32.8 -89.3 -3.516
22:38 1020 30.12 849 25.07 3.7 38.7 79 0.4 32.8 -89.3 -3.516
22:39 1020 30.12 849 25.07 3.7 38.6 80 0.5 32.9 -89.3 -3.516
22:40 1020 30.12 849 25.07 3.6 38.4 80 0.4 32.7 -89.3 -3.516
22:41 1020 30.12 849 25.07 3.6 38.4 80 0.4 32.7 -89.3 -3.516
22:42 1020 30.12 849 25.07 3.6 38.4 79 0.3 32.5 -89.3 -3.516
22:43 1020 30.12 849 25.07 3.7 38.7 79 0.4 32.6 -89.3 -3.516
22:44 1020 30.12 849 25.07 3.7 38.7 79 0.4 32.7 -89.3 -3.516
22:45 1020 30.12 849 25.07 3.8 38.8 78 0.4 32.6 -89.3 -3.516
22:46 1020 30.12 849 25.07 3.9 39 78 0.4 32.7 -89.3 -3.516
22:47 1020 30.12 849 25.07 3.9 39.1 78 0.5 32.9 -89.3 -3.516
22:48 1020 30.12 849 25.07 3.9 39.1 78 0.4 32.8 -89.4 -3.52
22:49 1020 30.12 849 25.07 4 39.1 78 0.4 32.8 -89.4 -3.52
22:50 1020 30.12 849 25.07 4 39.3 78 0.5 32.9 -89.4 -3.52
22:51 1020 30.12 849 25.07 4 39.3 78 0.5 32.9 -89.4 -3.52
22:52 1020 30.12 849 25.07 4 39.1 78 0.5 33 -89.4 -3.52
22:53 1020 30.12 849 25.07 3.8 38.9 79 0.5 32.9 -89.4 -3.52
22:54 1020 30.12 849 25.07 3.8 38.8 79 0.5 32.9 -89.4 -3.52
22:55 1020 30.12 849 25.07 3.8 38.8 79 0.5 32.9 -89.4 -3.52
22:56 1020 30.12 849 25.07 3.7 38.7 79 0.5 32.8 -89.4 -3.52
22:57 1020 30.12 849 25.07 3.7 38.7 79 0.5 32.8 -89.4 -3.52
22:58 1020 30.12 849 25.07 3.7 38.7 79 0.5 32.9 -89.4 -3.52
22:59 1020 30.12 849 25.07 3.7 38.6 79 0.4 32.7 -89.4 -3.52
23:00 1020 30.12 849 25.07 3.7 38.7 79 0.4 32.7 -89.4 -3.52
23:01 1020 30.12 849 25.07 3.7 38.7 79 0.4 32.6 -89.4 -3.52
23:02 1020 30.12 849 25.07 3.6 38.5 79 0.3 32.6 -89.4 -3.52
23:03 1020 30.12 849 25.07 3.5 38.3 79 0.3 32.5 -89.4 -3.52
23:04 1020 30.12 849 25.07 3.5 38.3 79 0.2 32.4 -89.4 -3.52
23:05 1020 30.12 849 25.07 3.4 38.1 80 0.2 32.4 -89.4 -3.52
23:06 1020 30.12 849 25.07 3.3 38 80 0.2 32.3 -89.4 -3.52
23:07 1020 30.12 849 25.07 3.2 37.8 80 0.2 32.3 -89.4 -3.52
23:08 1020 30.12 849 25.07 3.1 37.7 81 0.2 32.3 -89.4 -3.52
23:09 1020 30.12 849 25.07 3.1 37.5 82 0.2 32.4 -89.4 -3.52
23:10 1020 30.12 849 25.07 3 37.4 82 0.2 32.4 -89.4 -3.52
23:11 1020 30.12 849 25.07 2.9 37.3 82 0.1 32.3 -89.4 -3.52
23:12 1020 30.12 849 25.07 2.9 37.2 82 0.1 32.2 -89.4 -3.52
23:13 1020 30.12 849 25.07 2.8 37 83 0.1 32.2 -89.4 -3.52
23:14 1020 30.12 849 25.07 2.7 36.9 82 -0 32 -89.4 -3.52
23:15 1020 30.12 849 25.07 2.7 36.8 82 -0 32 -89.4 -3.52
23:16 1020 30.12 849 25.07 2.6 36.6 83 -0.1 31.9 -89.4 -3.52
23:17 1020 30.12 849 25.07 2.6 36.6 82 -0.1 31.8 -89.3 -3.516
23:18 1020 30.12 849 25.07 2.4 36.4 83 -0.2 31.7 -89.3 -3.516
23:19 1020 30.12 849 25.07 2.3 36.2 83 -0.2 31.6 -89.3 -3.516
23:20 1020 30.12 849 25.07 2.2 36 84 -0.3 31.5 -89.3 -3.516
23:21 1020 30.12 849 25.07 2.1 35.8 84 -0.3 31.5 -89.3 -3.516
23:22 1020 30.12 849 25.07 2.1 35.8 84 -0.2 31.6 -89.3 -3.516
23:23 1020 30.12 849 25.07 2.1 35.8 85 -0.2 31.6 -89.3 -3.516
23:24 1020 30.12 849 25.07 2.1 35.8 85 -0.2 31.6 -89.2 -3.512
23:25 1020 30.12 849 25.07 2.1 35.8 84 -0.2 31.6 -89.2 -3.512
23:26 1020 30.12 849 25.07 2.1 35.8 84 -0.2 31.6 -89.2 -3.512
23:27 1020 30.12 849 25.07 2.1 35.8 84 -0.3 31.5 -89.2 -3.512
23:28 1020 30.12 849 25.07 2.1 35.9 84 -0.2 31.6 -89.2 -3.512
23:29 1020 30.12 849 25.07 2.1 35.8 85 -0.2 31.6 -89.2 -3.512
23:30 1020 30.12 849 25.07 2.2 35.9 84 -0.2 31.6 -89.2 -3.512
23:31 1020 30.12 849 25.07 2.2 36 84 -0.3 31.5 -89.2 -3.512
23:32 1020 30.12 849 25.07 2.2 36 84 -0.2 31.6 -89.2 -3.512
23:33 1020 30.12 849 25.07 2.3 36.1 84 -0.2 31.6 -89.2 -3.512
23:34 1020 30.12 849 25.07 2.3 36.1 83 -0.3 31.5 -89.2 -3.512
23:35 1020 30.12 849 25.07 2.3 36.1 83 -0.3 31.5 -89.2 -3.512
23:36 1020 30.12 849 25.07 2.3 36.1 83 -0.3 31.5 -89.2 -3.512
23:37 1020 30.12 849 25.07 2.4 36.3 83 -0.2 31.6 -89.2 -3.512
23:38 1020 30.12 849 25.07 2.4 36.4 82 -0.3 31.5 -89.2 -3.512
23:39 1020 30.12 849 25.07 2.6 36.6 81 -0.3 31.4 -89.2 -3.512
23:40 1020 30.12 849 25.07 2.6 36.6 81 -0.3 31.4 -89.3 -3.516
23:41 1020 30.12 849 25.07 2.6 36.8 81 -0.4 31.4 -89.3 -3.516
23:42 1020 30.12 849 25.07 2.7 36.8 80 -0.4 31.2 -89.3 -3.516
23:43 1020 30.12 849 25.07 2.7 36.9 80 -0.4 31.2 -89.3 -3.516
23:44 1020 30.12 849 25.07 2.7 36.9 80 -0.4 31.2 -89.4 -3.52
23:45 1020 30.12 849 25.07 2.7 36.9 80 -0.4 31.2 -89.4 -3.52
23:46 1020 30.12 849 25.07 2.7 36.9 79 -0.5 31.2 -89.4 -3.52
23:47 1020 30.12 849 25.07 2.7 36.9 80 -0.5 31.2 -89.4 -3.52
23:48 1020 30.12 849 25.07 2.8 37.1 79 -0.4 31.2 -89.4 -3.52
23:49 1019 30.09 849 25.07 2.8 37.1 79 -0.4 31.3 -89.4 -3.52
23:50 1019 30.09 849 25.07 2.8 37.1 79 -0.4 31.3 -89.5 -3.524
23:51 1019 30.09 849 25.07 2.7 36.9 80 -0.4 31.4 -89.5 -3.524
23:52 1019 30.09 849 25.07 2.7 36.9 80 -0.4 31.3 -89.5 -3.524
23:53 1019 30.09 849 25.07 2.6 36.7 81 -0.4 31.3 -89.5 -3.524
23:54 1019 30.09 849 25.07 2.6 36.7 81 -0.3 31.4 -89.5 -3.524
23:55 1019 30.09 849 25.07 2.5 36.6 81 -0.3 31.4 -89.5 -3.524
23:56 1019 30.09 849 25.07 2.6 36.7 81 -0.3 31.4 -89.5 -3.524
23:57 1019 30.09 849 25.07 2.7 36.8 81 -0.3 31.4 -89.5 -3.524
23:58 1019 30.09 849 25.07 2.7 36.9 80 -0.3 31.4 -89.5 -3.524
23:59 1019 30.09 849 25.07 2.8 37.1 80 -0.3 31.4 -89.5 -3.524
24:00 1019 30.09 849 25.07 2.9 37.3 79 -0.3 31.5 -89.6 -3.528